PWSweather.com
Personal Weather Stations
Station Observations
DL5ARK
SonnebergDE

SonnebergDE

Lat: 50.34904861, Lon: 11.18112087

Elevation: 1214

Station Type: Selfmade

http://www.sumbarg.de

High Low Average
Temperature 88.8°F31.6°C 66.7°F19.3°C 77.7°F25.4°C
Dew Point 69.8°F21.0°C 61.3°F16.3°C 66.7°F19.3°C
Winds 17.8 mph 28.6 kmh Calm Calm 4.0 mph SE6.4 kmh SE
Wind Gusts 17.8 mph28.6 kmh -- 4.0 mph6.4 kmh
Humidity 66% 44% 56%
Pressure 30.15 in1021.0 mb 30.03 in1016.9 mb -
Precipitation 0.00 in0.0 mm - -
Hour Temp Dew Point Humidity Winds Wind Gusts Pressure Precip Precip Rate Daily Precip Total
12:00 AM 67.6°F19.8°C 62.5°F16.9°C 56% Calm Calm -- 30.03 in1016.9 mb 0.00 in0.0 mm 0.00 in0.0 mm 0.00 in0.0 mm
12:03 AM 67.3°F19.6°C 62.9°F17.2°C 57% 0.8 mph NNW1.3 kmh NNW 0.8 mph1.3 kmh 30.03 in1016.9 mb 0.00 in0.0 mm 0.00 in0.0 mm 0.00 in0.0 mm
12:09 AM 67.3°F19.6°C 62.0°F16.7°C 57% Calm Calm -- 30.04 in1017.3 mb 0.00 in0.0 mm 0.00 in0.0 mm 0.00 in0.0 mm
12:12 AM 67.7°F19.8°C 62.5°F16.9°C 57% Calm Calm -- 30.03 in1016.9 mb 0.00 in0.0 mm 0.00 in0.0 mm 0.00 in0.0 mm
12:15 AM 67.8°F19.9°C 62.5°F16.9°C 57% 2.0 mph WNW3.2 kmh WNW 2.0 mph3.2 kmh 30.03 in1016.9 mb 0.00 in0.0 mm 0.00 in0.0 mm 0.00 in0.0 mm
12:18 AM 67.3°F19.6°C 61.8°F16.6°C 57% Calm Calm -- 30.03 in1016.9 mb 0.00 in0.0 mm 0.00 in0.0 mm 0.00 in0.0 mm
12:21 AM 67.1°F19.5°C 62.0°F16.7°C 57% Calm Calm -- 30.03 in1016.9 mb 0.00 in0.0 mm 0.00 in0.0 mm 0.00 in0.0 mm
12:24 AM 67.4°F19.7°C 62.2°F16.8°C 57% Calm Calm -- 30.03 in1016.9 mb 0.00 in0.0 mm 0.00 in0.0 mm 0.00 in0.0 mm
12:27 AM 67.3°F19.6°C 62.0°F16.7°C 57% 2.0 mph SW3.2 kmh SW 2.0 mph3.2 kmh 30.03 in1016.9 mb 0.00 in0.0 mm 0.00 in0.0 mm 0.00 in0.0 mm
12:30 AM 67.1°F19.5°C 63.0°F17.2°C 59% 1.5 mph SE2.4 kmh SE 1.6 mph2.6 kmh 30.03 in1016.9 mb 0.00 in0.0 mm 0.00 in0.0 mm 0.00 in0.0 mm
12:33 AM 68.2°F20.1°C 62.1°F16.7°C 57% 2.4 mph NNW3.9 kmh NNW 2.4 mph3.9 kmh 30.03 in1016.9 mb 0.00 in0.0 mm 0.00 in0.0 mm 0.00 in0.0 mm
12:36 AM 67.8°F19.9°C 62.1°F16.7°C 58% Calm Calm -- 30.03 in1016.9 mb 0.00 in0.0 mm 0.00 in0.0 mm 0.00 in0.0 mm
12:39 AM 68.0°F20.0°C 62.1°F16.7°C 57% Calm Calm -- 30.03 in1016.9 mb 0.00 in0.0 mm 0.00 in0.0 mm 0.00 in0.0 mm
12:42 AM 67.2°F19.6°C 62.6°F17.0°C 58% Calm Calm -- 30.03 in1016.9 mb 0.00 in0.0 mm 0.00 in0.0 mm 0.00 in0.0 mm
12:45 AM 67.4°F19.7°C 62.2°F16.8°C 58% 1.2 mph W1.9 kmh W 1.2 mph1.9 kmh 30.03 in1016.9 mb 0.00 in0.0 mm 0.00 in0.0 mm 0.00 in0.0 mm
12:48 AM 68.2°F20.1°C 62.1°F16.7°C 58% 1.2 mph WSW1.9 kmh WSW 1.2 mph1.9 kmh 30.03 in1016.9 mb 0.00 in0.0 mm 0.00 in0.0 mm 0.00 in0.0 mm
12:51 AM 67.2°F19.6°C 62.4°F16.9°C 59% 0.8 mph WSW1.3 kmh WSW 0.8 mph1.3 kmh 30.03 in1016.9 mb 0.00 in0.0 mm 0.00 in0.0 mm 0.00 in0.0 mm
12:54 AM 67.3°F19.6°C 61.8°F16.6°C 58% 2.0 mph 3.2 kmh 2.0 mph3.2 kmh 30.03 in1016.9 mb 0.00 in0.0 mm 0.00 in0.0 mm 0.00 in0.0 mm
12:57 AM 67.4°F19.7°C 61.8°F16.6°C 59% Calm Calm -- 30.03 in1016.9 mb 0.00 in0.0 mm 0.00 in0.0 mm 0.00 in0.0 mm
01:00 AM 67.3°F19.6°C 62.5°F16.9°C 59% Calm Calm -- 30.03 in1016.9 mb 0.00 in0.0 mm 0.00 in0.0 mm 0.00 in0.0 mm
01:03 AM 67.0°F19.4°C 61.6°F16.4°C 58% 1.6 mph ESE2.6 kmh ESE 1.6 mph2.6 kmh 30.04 in1017.3 mb 0.00 in0.0 mm 0.00 in0.0 mm 0.00 in0.0 mm
01:09 AM 66.7°F19.3°C 61.5°F16.4°C 59% 2.4 mph SSW3.9 kmh SSW 2.4 mph3.9 kmh 30.03 in1016.9 mb 0.00 in0.0 mm 0.00 in0.0 mm 0.00 in0.0 mm
01:12 AM 67.7°F19.8°C 61.7°F16.5°C 59% 1.2 mph W1.9 kmh W 1.2 mph1.9 kmh 30.03 in1016.9 mb 0.00 in0.0 mm 0.00 in0.0 mm 0.00 in0.0 mm
01:15 AM 68.3°F20.2°C 61.5°F16.4°C 59% 0.8 mph NW1.3 kmh NW 0.8 mph1.3 kmh 30.04 in1017.3 mb 0.00 in0.0 mm 0.00 in0.0 mm 0.00 in0.0 mm
01:18 AM 70.6°F21.4°C 61.4°F16.3°C 58% 1.6 mph NNE2.6 kmh NNE 1.6 mph2.6 kmh 30.03 in1016.9 mb 0.00 in0.0 mm 0.00 in0.0 mm 0.00 in0.0 mm
01:21 AM 71.6°F22.0°C 62.1°F16.7°C 58% 3.2 mph NNE5.1 kmh NNE 3.3 mph5.3 kmh 30.03 in1016.9 mb 0.00 in0.0 mm 0.00 in0.0 mm 0.00 in0.0 mm
01:24 AM 74.8°F23.8°C 61.3°F16.3°C 57% 3.6 mph ENE5.8 kmh ENE 3.6 mph5.8 kmh 30.03 in1016.9 mb 0.00 in0.0 mm 0.00 in0.0 mm 0.00 in0.0 mm
01:27 AM 75.9°F24.4°C 61.3°F16.3°C 56% 7.0 mph E11.3 kmh E 7.0 mph11.3 kmh 30.03 in1016.9 mb 0.00 in0.0 mm 0.00 in0.0 mm 0.00 in0.0 mm
01:30 AM 76.7°F24.8°C 61.4°F16.3°C 54% 6.4 mph ESE10.3 kmh ESE 6.4 mph10.3 kmh 30.03 in1016.9 mb 0.00 in0.0 mm 0.00 in0.0 mm 0.00 in0.0 mm
01:33 AM 77.2°F25.1°C 62.1°F16.7°C 53% 6.1 mph ESE9.8 kmh ESE 6.1 mph9.8 kmh 30.03 in1016.9 mb 0.00 in0.0 mm 0.00 in0.0 mm 0.00 in0.0 mm
01:36 AM 77.3°F25.2°C 62.0°F16.7°C 53% 6.8 mph NE10.9 kmh NE 6.8 mph10.9 kmh 30.03 in1016.9 mb 0.00 in0.0 mm 0.00 in0.0 mm 0.00 in0.0 mm
01:39 AM 77.2°F25.1°C 61.6°F16.4°C 53% 3.6 mph ESE5.8 kmh ESE 3.6 mph5.8 kmh 30.03 in1016.9 mb 0.00 in0.0 mm 0.00 in0.0 mm 0.00 in0.0 mm
01:42 AM 76.6°F24.8°C 62.0°F16.7°C 53% 2.4 mph NE3.9 kmh NE 2.5 mph4.0 kmh 30.03 in1016.9 mb 0.00 in0.0 mm 0.00 in0.0 mm 0.00 in0.0 mm
01:45 AM 77.5°F25.3°C 62.0°F16.7°C 52% 3.2 mph NE5.1 kmh NE 3.2 mph5.1 kmh 30.03 in1016.9 mb 0.00 in0.0 mm 0.00 in0.0 mm 0.00 in0.0 mm
01:48 AM 77.5°F25.3°C 62.2°F16.8°C 52% 3.2 mph ENE5.1 kmh ENE 3.3 mph5.3 kmh 30.03 in1016.9 mb 0.00 in0.0 mm 0.00 in0.0 mm 0.00 in0.0 mm
01:51 AM 77.0°F25.0°C 61.9°F16.6°C 52% 3.6 mph NNW5.8 kmh NNW 3.6 mph5.8 kmh 30.03 in1016.9 mb 0.00 in0.0 mm 0.00 in0.0 mm 0.00 in0.0 mm
01:54 AM 77.5°F25.3°C 62.9°F17.2°C 52% 8.5 mph E13.7 kmh E 8.6 mph13.8 kmh 30.03 in1016.9 mb 0.00 in0.0 mm 0.00 in0.0 mm 0.00 in0.0 mm
01:57 AM 77.6°F25.3°C 62.3°F16.8°C 52% 7.7 mph NNW12.4 kmh NNW 7.7 mph12.4 kmh 30.03 in1016.9 mb 0.00 in0.0 mm 0.00 in0.0 mm 0.00 in0.0 mm
02:00 AM 77.5°F25.3°C 62.2°F16.8°C 52% 4.8 mph ESE7.7 kmh ESE 4.8 mph7.7 kmh 30.03 in1016.9 mb 0.00 in0.0 mm 0.00 in0.0 mm 0.00 in0.0 mm
02:03 AM 77.5°F25.3°C 62.1°F16.7°C 51% 2.0 mph NNW3.2 kmh NNW 2.0 mph3.2 kmh 30.03 in1016.9 mb 0.00 in0.0 mm 0.00 in0.0 mm 0.00 in0.0 mm
02:06 AM 78.0°F25.6°C 62.4°F16.9°C 51% 3.6 mph E5.8 kmh E 3.7 mph6.0 kmh 30.03 in1016.9 mb 0.00 in0.0 mm 0.00 in0.0 mm 0.00 in0.0 mm
02:09 AM 78.1°F25.6°C 62.2°F16.8°C 51% 4.0 mph NNW6.4 kmh NNW 4.0 mph6.4 kmh 30.03 in1016.9 mb 0.00 in0.0 mm 0.00 in0.0 mm 0.00 in0.0 mm
02:12 AM 78.5°F25.8°C 62.2°F16.8°C 51% 2.8 mph E4.5 kmh E 2.9 mph4.7 kmh 30.03 in1016.9 mb 0.00 in0.0 mm 0.00 in0.0 mm 0.00 in0.0 mm
02:15 AM 78.2°F25.7°C 62.0°F16.7°C 50% 8.8 mph NE14.2 kmh NE 8.9 mph14.3 kmh 30.03 in1016.9 mb 0.00 in0.0 mm 0.00 in0.0 mm 0.00 in0.0 mm
02:21 AM 77.5°F25.3°C 62.4°F16.9°C 51% 4.1 mph E6.6 kmh E 4.1 mph6.6 kmh 30.03 in1016.9 mb 0.00 in0.0 mm 0.00 in0.0 mm 0.00 in0.0 mm
02:24 AM 78.1°F25.6°C 62.9°F17.2°C 51% 4.0 mph NE6.4 kmh NE 4.0 mph6.4 kmh 30.03 in1016.9 mb 0.00 in0.0 mm 0.00 in0.0 mm 0.00 in0.0 mm
02:30 AM 77.6°F25.3°C 62.9°F17.2°C 51% 7.2 mph NE11.6 kmh NE 7.2 mph11.6 kmh 30.03 in1016.9 mb 0.00 in0.0 mm 0.00 in0.0 mm 0.00 in0.0 mm
02:33 AM 77.7°F25.4°C 62.7°F17.1°C 51% 6.4 mph ENE10.3 kmh ENE 6.4 mph10.3 kmh 30.04 in1017.3 mb 0.00 in0.0 mm 0.00 in0.0 mm 0.00 in0.0 mm
02:36 AM 77.6°F25.3°C 63.3°F17.4°C 51% 2.0 mph ENE3.2 kmh ENE 2.0 mph3.2 kmh 30.04 in1017.3 mb 0.00 in0.0 mm 0.00 in0.0 mm 0.00 in0.0 mm
02:39 AM 77.8°F25.4°C 62.1°F16.7°C 51% 12.3 mph NE19.8 kmh NE 12.4 mph20.0 kmh 30.03 in1016.9 mb 0.00 in0.0 mm 0.00 in0.0 mm 0.00 in0.0 mm
02:42 AM 77.9°F25.5°C 62.9°F17.2°C 51% 6.4 mph ENE10.3 kmh ENE 6.4 mph10.3 kmh 30.05 in1017.6 mb 0.00 in0.0 mm 0.00 in0.0 mm 0.00 in0.0 mm
02:45 AM 77.7°F25.4°C 62.9°F17.2°C 51% 6.1 mph NNW9.8 kmh NNW 6.1 mph9.8 kmh 30.04 in1017.3 mb 0.00 in0.0 mm 0.00 in0.0 mm 0.00 in0.0 mm
02:48 AM 77.5°F25.3°C 63.0°F17.2°C 51% 5.6 mph 9.0 kmh 5.6 mph9.0 kmh 30.05 in1017.6 mb 0.00 in0.0 mm 0.00 in0.0 mm 0.00 in0.0 mm
02:51 AM 77.3°F25.2°C 63.3°F17.4°C 51% 4.4 mph NNW7.1 kmh NNW 4.5 mph7.2 kmh 30.05 in1017.6 mb 0.00 in0.0 mm 0.00 in0.0 mm 0.00 in0.0 mm
02:54 AM 77.2°F25.1°C 63.4°F17.4°C 51% 8.1 mph NNW13.0 kmh NNW 8.2 mph13.2 kmh 30.04 in1017.3 mb 0.00 in0.0 mm 0.00 in0.0 mm 0.00 in0.0 mm
02:57 AM 76.9°F24.9°C 62.5°F16.9°C 51% 6.1 mph ESE9.8 kmh ESE 6.1 mph9.8 kmh 30.04 in1017.3 mb 0.00 in0.0 mm 0.00 in0.0 mm 0.00 in0.0 mm
03:00 AM 77.1°F25.1°C 63.4°F17.4°C 51% 4.4 mph NE7.1 kmh NE 4.4 mph7.1 kmh 30.05 in1017.6 mb 0.00 in0.0 mm 0.00 in0.0 mm 0.00 in0.0 mm
03:03 AM 77.3°F25.2°C 63.2°F17.3°C 51% 8.1 mph 13.0 kmh 8.1 mph13.0 kmh 30.05 in1017.6 mb 0.00 in0.0 mm 0.00 in0.0 mm 0.00 in0.0 mm
03:06 AM 77.6°F25.3°C 63.1°F17.3°C 51% 8.1 mph NNW13.0 kmh NNW 8.2 mph13.2 kmh 30.05 in1017.6 mb 0.00 in0.0 mm 0.00 in0.0 mm 0.00 in0.0 mm
03:09 AM 76.4°F24.7°C 62.8°F17.1°C 51% 0.8 mph W1.3 kmh W 0.8 mph1.3 kmh 30.05 in1017.6 mb 0.00 in0.0 mm 0.00 in0.0 mm 0.00 in0.0 mm
03:12 AM 75.3°F24.1°C 63.5°F17.5°C 51% 2.8 mph W4.5 kmh W 2.8 mph4.5 kmh 30.07 in1018.3 mb 0.00 in0.0 mm 0.00 in0.0 mm 0.00 in0.0 mm
03:15 AM 74.6°F23.7°C 62.9°F17.2°C 51% 1.2 mph W1.9 kmh W 1.2 mph1.9 kmh 30.07 in1018.3 mb 0.00 in0.0 mm 0.00 in0.0 mm 0.00 in0.0 mm
03:18 AM 74.5°F23.6°C 62.8°F17.1°C 52% 1.2 mph NW1.9 kmh NW 1.2 mph1.9 kmh 30.07 in1018.3 mb 0.00 in0.0 mm 0.00 in0.0 mm 0.00 in0.0 mm
03:21 AM 74.2°F23.4°C 63.4°F17.4°C 52% Calm Calm -- 30.07 in1018.3 mb 0.00 in0.0 mm 0.00 in0.0 mm 0.00 in0.0 mm
03:24 AM 74.0°F23.3°C 63.5°F17.5°C 52% 1.6 mph NNW2.6 kmh NNW 1.6 mph2.6 kmh 30.07 in1018.3 mb 0.00 in0.0 mm 0.00 in0.0 mm 0.00 in0.0 mm
03:27 AM 73.7°F23.2°C 63.2°F17.3°C 52% Calm Calm -- 30.07 in1018.3 mb 0.00 in0.0 mm 0.00 in0.0 mm 0.00 in0.0 mm
03:30 AM 73.5°F23.1°C 63.1°F17.3°C 52% Calm Calm -- 30.07 in1018.3 mb 0.00 in0.0 mm 0.00 in0.0 mm 0.00 in0.0 mm
03:36 AM 73.0°F22.8°C 63.4°F17.4°C 53% Calm Calm -- 30.07 in1018.3 mb 0.00 in0.0 mm 0.00 in0.0 mm 0.00 in0.0 mm
03:39 AM 72.6°F22.6°C 62.5°F16.9°C 53% Calm Calm -- 30.07 in1018.3 mb 0.00 in0.0 mm 0.00 in0.0 mm 0.00 in0.0 mm
03:42 AM 72.6°F22.6°C 62.2°F16.8°C 53% Calm Calm -- 30.07 in1018.3 mb 0.00 in0.0 mm 0.00 in0.0 mm 0.00 in0.0 mm
03:45 AM 71.5°F21.9°C 63.0°F17.2°C 54% Calm Calm -- 30.07 in1018.3 mb 0.00 in0.0 mm 0.00 in0.0 mm 0.00 in0.0 mm
03:48 AM 73.2°F22.9°C 63.6°F17.6°C 55% 1.6 mph ENE2.6 kmh ENE 1.6 mph2.6 kmh 30.07 in1018.3 mb 0.00 in0.0 mm 0.00 in0.0 mm 0.00 in0.0 mm
03:51 AM 75.0°F23.9°C 63.5°F17.5°C 56% 7.6 mph E12.2 kmh E 7.7 mph12.4 kmh 30.06 in1017.9 mb 0.00 in0.0 mm 0.00 in0.0 mm 0.00 in0.0 mm
03:54 AM 74.4°F23.6°C 64.5°F18.1°C 56% 3.6 mph ESE5.8 kmh ESE 3.6 mph5.8 kmh 30.05 in1017.6 mb 0.00 in0.0 mm 0.00 in0.0 mm 0.00 in0.0 mm
03:57 AM 74.4°F23.6°C 63.8°F17.7°C 56% 2.4 mph E3.9 kmh E 2.4 mph3.9 kmh 30.05 in1017.6 mb 0.00 in0.0 mm 0.00 in0.0 mm 0.00 in0.0 mm
04:00 AM 74.9°F23.8°C 63.7°F17.6°C 56% 6.9 mph NNW11.1 kmh NNW 6.9 mph11.1 kmh 30.06 in1017.9 mb 0.00 in0.0 mm 0.00 in0.0 mm 0.00 in0.0 mm
04:03 AM 74.9°F23.8°C 63.8°F17.7°C 57% 10.1 mph NE16.3 kmh NE 10.1 mph16.3 kmh 30.05 in1017.6 mb 0.00 in0.0 mm 0.00 in0.0 mm 0.00 in0.0 mm
04:06 AM 74.5°F23.6°C 65.3°F18.5°C 57% 2.4 mph NNW3.9 kmh NNW 2.4 mph3.9 kmh 30.05 in1017.6 mb 0.00 in0.0 mm 0.00 in0.0 mm 0.00 in0.0 mm
04:09 AM 74.6°F23.7°C 65.3°F18.5°C 58% 7.9 mph NE12.7 kmh NE 8.0 mph12.9 kmh 30.05 in1017.6 mb 0.00 in0.0 mm 0.00 in0.0 mm 0.00 in0.0 mm
04:12 AM 74.9°F23.8°C 64.4°F18.0°C 57% 5.2 mph NE8.4 kmh NE 5.2 mph8.4 kmh 30.05 in1017.6 mb 0.00 in0.0 mm 0.00 in0.0 mm 0.00 in0.0 mm
04:15 AM 74.6°F23.7°C 64.6°F18.1°C 58% 10.1 mph NNW16.3 kmh NNW 10.2 mph16.4 kmh 30.05 in1017.6 mb 0.00 in0.0 mm 0.00 in0.0 mm 0.00 in0.0 mm
04:18 AM 74.6°F23.7°C 64.3°F17.9°C 58% 5.7 mph NNW9.2 kmh NNW 5.7 mph9.2 kmh 30.05 in1017.6 mb 0.00 in0.0 mm 0.00 in0.0 mm 0.00 in0.0 mm
04:21 AM 74.5°F23.6°C 65.0°F18.3°C 58% 6.1 mph NE9.8 kmh NE 6.1 mph9.8 kmh 30.05 in1017.6 mb 0.00 in0.0 mm 0.00 in0.0 mm 0.00 in0.0 mm
04:24 AM 74.5°F23.6°C 64.6°F18.1°C 58% 5.6 mph E9.0 kmh E 5.6 mph9.0 kmh 30.05 in1017.6 mb 0.00 in0.0 mm 0.00 in0.0 mm 0.00 in0.0 mm
04:27 AM 74.5°F23.6°C 65.1°F18.4°C 59% 11.9 mph NNW19.2 kmh NNW 11.9 mph19.2 kmh 30.05 in1017.6 mb 0.00 in0.0 mm 0.00 in0.0 mm 0.00 in0.0 mm
04:30 AM 74.5°F23.6°C 65.4°F18.6°C 58% 1.6 mph ENE2.6 kmh ENE 1.6 mph2.6 kmh 30.05 in1017.6 mb 0.00 in0.0 mm 0.00 in0.0 mm 0.00 in0.0 mm
04:33 AM 74.2°F23.4°C 65.4°F18.6°C 59% 3.2 mph NNE5.1 kmh NNE 3.2 mph5.1 kmh 30.04 in1017.3 mb 0.00 in0.0 mm 0.00 in0.0 mm 0.00 in0.0 mm
04:36 AM 74.3°F23.5°C 64.9°F18.3°C 59% 5.2 mph NE8.4 kmh NE 5.2 mph8.4 kmh 30.05 in1017.6 mb 0.00 in0.0 mm 0.00 in0.0 mm 0.00 in0.0 mm
04:39 AM 74.1°F23.4°C 64.9°F18.3°C 59% 2.8 mph NNW4.5 kmh NNW 2.8 mph4.5 kmh 30.05 in1017.6 mb 0.00 in0.0 mm 0.00 in0.0 mm 0.00 in0.0 mm
04:42 AM 74.2°F23.4°C 65.9°F18.8°C 59% 6.9 mph NE11.1 kmh NE 6.9 mph11.1 kmh 30.04 in1017.3 mb 0.00 in0.0 mm 0.00 in0.0 mm 0.00 in0.0 mm
04:48 AM 74.4°F23.6°C 64.8°F18.2°C 59% 13.7 mph NE22.0 kmh NE 13.8 mph22.2 kmh 30.04 in1017.3 mb 0.00 in0.0 mm 0.00 in0.0 mm 0.00 in0.0 mm
04:51 AM 74.4°F23.6°C 65.8°F18.8°C 59% 8.9 mph NE14.3 kmh NE 8.9 mph14.3 kmh 30.04 in1017.3 mb 0.00 in0.0 mm 0.00 in0.0 mm 0.00 in0.0 mm
04:54 AM 74.2°F23.4°C 66.0°F18.9°C 60% 10.5 mph E16.9 kmh E 10.6 mph17.1 kmh 30.05 in1017.6 mb 0.00 in0.0 mm 0.00 in0.0 mm 0.00 in0.0 mm
04:57 AM 74.2°F23.4°C 65.9°F18.8°C 60% 6.1 mph E9.8 kmh E 6.1 mph9.8 kmh 30.04 in1017.3 mb 0.00 in0.0 mm 0.00 in0.0 mm 0.00 in0.0 mm
05:00 AM 74.2°F23.4°C 66.1°F18.9°C 60% 3.6 mph NE5.8 kmh NE 3.7 mph6.0 kmh 30.05 in1017.6 mb 0.00 in0.0 mm 0.00 in0.0 mm 0.00 in0.0 mm
05:03 AM 74.1°F23.4°C 66.1°F18.9°C 61% 17.8 mph NE28.6 kmh NE 17.8 mph28.6 kmh 30.04 in1017.3 mb 0.00 in0.0 mm 0.00 in0.0 mm 0.00 in0.0 mm
05:06 AM 74.1°F23.4°C 66.1°F18.9°C 61% 9.3 mph NNW15.0 kmh NNW 9.3 mph15.0 kmh 30.05 in1017.6 mb 0.00 in0.0 mm 0.00 in0.0 mm 0.00 in0.0 mm
05:09 AM 74.1°F23.4°C 66.2°F19.0°C 61% 10.8 mph E17.4 kmh E 10.9 mph17.5 kmh 30.05 in1017.6 mb 0.00 in0.0 mm 0.00 in0.0 mm 0.00 in0.0 mm
05:12 AM 74.1°F23.4°C 66.3°F19.1°C 62% 3.2 mph E5.1 kmh E 3.2 mph5.1 kmh 30.05 in1017.6 mb 0.00 in0.0 mm 0.00 in0.0 mm 0.00 in0.0 mm
05:15 AM 74.2°F23.4°C 66.4°F19.1°C 62% 6.1 mph E9.8 kmh E 6.1 mph9.8 kmh 30.05 in1017.6 mb 0.00 in0.0 mm 0.00 in0.0 mm 0.00 in0.0 mm
05:18 AM 74.1°F23.4°C 66.3°F19.1°C 61% 5.6 mph NE9.0 kmh NE 5.6 mph9.0 kmh 30.05 in1017.6 mb 0.00 in0.0 mm 0.00 in0.0 mm 0.00 in0.0 mm
05:21 AM 74.3°F23.5°C 65.3°F18.5°C 61% 6.8 mph NE10.9 kmh NE 6.9 mph11.1 kmh 30.05 in1017.6 mb 0.00 in0.0 mm 0.00 in0.0 mm 0.00 in0.0 mm
05:24 AM 74.5°F23.6°C 65.8°F18.8°C 61% 2.8 mph E4.5 kmh E 2.9 mph4.7 kmh 30.05 in1017.6 mb 0.00 in0.0 mm 0.00 in0.0 mm 0.00 in0.0 mm
05:27 AM 74.4°F23.6°C 66.4°F19.1°C 60% 8.1 mph ENE13.0 kmh ENE 8.1 mph13.0 kmh 30.05 in1017.6 mb 0.00 in0.0 mm 0.00 in0.0 mm 0.00 in0.0 mm
05:30 AM 74.5°F23.6°C 66.4°F19.1°C 61% 9.3 mph NE15.0 kmh NE 9.3 mph15.0 kmh 30.05 in1017.6 mb 0.00 in0.0 mm 0.00 in0.0 mm 0.00 in0.0 mm
05:33 AM 74.5°F23.6°C 66.6°F19.2°C 61% 6.5 mph E10.5 kmh E 6.5 mph10.5 kmh 30.05 in1017.6 mb 0.00 in0.0 mm 0.00 in0.0 mm 0.00 in0.0 mm
05:36 AM 74.6°F23.7°C 66.0°F18.9°C 61% 6.5 mph NE10.5 kmh NE 6.5 mph10.5 kmh 30.05 in1017.6 mb 0.00 in0.0 mm 0.00 in0.0 mm 0.00 in0.0 mm
05:39 AM 75.0°F23.9°C 66.9°F19.4°C 61% 8.5 mph NNW13.7 kmh NNW 8.6 mph13.8 kmh 30.05 in1017.6 mb 0.00 in0.0 mm 0.00 in0.0 mm 0.00 in0.0 mm
05:42 AM 74.8°F23.8°C 66.1°F18.9°C 60% 6.0 mph NE9.7 kmh NE 6.0 mph9.7 kmh 30.06 in1017.9 mb 0.00 in0.0 mm 0.00 in0.0 mm 0.00 in0.0 mm
05:45 AM 74.6°F23.7°C 67.2°F19.6°C 61% 5.3 mph NE8.5 kmh NE 5.3 mph8.5 kmh 30.05 in1017.6 mb 0.00 in0.0 mm 0.00 in0.0 mm 0.00 in0.0 mm
05:48 AM 74.6°F23.7°C 66.9°F19.4°C 60% 7.9 mph NNE12.7 kmh NNE 7.9 mph12.7 kmh 30.05 in1017.6 mb 0.00 in0.0 mm 0.00 in0.0 mm 0.00 in0.0 mm
05:51 AM 75.0°F23.9°C 66.4°F19.1°C 60% 6.1 mph ESE9.8 kmh ESE 6.1 mph9.8 kmh 30.06 in1017.9 mb 0.00 in0.0 mm 0.00 in0.0 mm 0.00 in0.0 mm
05:54 AM 75.3°F24.1°C 65.9°F18.8°C 60% 4.8 mph NE7.7 kmh NE 4.9 mph7.9 kmh 30.07 in1018.3 mb 0.00 in0.0 mm 0.00 in0.0 mm 0.00 in0.0 mm
05:57 AM 75.3°F24.1°C 66.5°F19.2°C 60% 4.9 mph NNW7.9 kmh NNW 4.9 mph7.9 kmh 30.07 in1018.3 mb 0.00 in0.0 mm 0.00 in0.0 mm 0.00 in0.0 mm
06:00 AM 75.0°F23.9°C 67.1°F19.5°C 60% 2.4 mph E3.9 kmh E 2.4 mph3.9 kmh 30.07 in1018.3 mb 0.00 in0.0 mm 0.00 in0.0 mm 0.00 in0.0 mm
06:03 AM 74.6°F23.7°C 67.1°F19.5°C 60% 6.0 mph NNW9.7 kmh NNW 6.0 mph9.7 kmh 30.07 in1018.3 mb 0.00 in0.0 mm 0.00 in0.0 mm 0.00 in0.0 mm
06:06 AM 74.8°F23.8°C 67.0°F19.4°C 60% 4.8 mph NNE7.7 kmh NNE 4.9 mph7.9 kmh 30.07 in1018.3 mb 0.00 in0.0 mm 0.00 in0.0 mm 0.00 in0.0 mm
06:09 AM 74.5°F23.6°C 66.7°F19.3°C 61% 6.0 mph NE9.7 kmh NE 6.0 mph9.7 kmh 30.07 in1018.3 mb 0.00 in0.0 mm 0.00 in0.0 mm 0.00 in0.0 mm
06:12 AM 74.4°F23.6°C 67.0°F19.4°C 61% 3.2 mph ESE5.1 kmh ESE 3.3 mph5.3 kmh 30.07 in1018.3 mb 0.00 in0.0 mm 0.00 in0.0 mm 0.00 in0.0 mm
06:15 AM 74.4°F23.6°C 66.9°F19.4°C 61% 3.2 mph NE5.1 kmh NE 3.3 mph5.3 kmh 30.07 in1018.3 mb 0.00 in0.0 mm 0.00 in0.0 mm 0.00 in0.0 mm
06:18 AM 74.3°F23.5°C 66.3°F19.1°C 61% 2.0 mph NE3.2 kmh NE 2.0 mph3.2 kmh 30.07 in1018.3 mb 0.00 in0.0 mm 0.00 in0.0 mm 0.00 in0.0 mm
06:21 AM 74.1°F23.4°C 67.1°F19.5°C 61% 6.7 mph NE10.8 kmh NE 6.7 mph10.8 kmh 30.07 in1018.3 mb 0.00 in0.0 mm 0.00 in0.0 mm 0.00 in0.0 mm
06:24 AM 74.2°F23.4°C 67.1°F19.5°C 62% 4.8 mph E7.7 kmh E 4.9 mph7.9 kmh 30.07 in1018.3 mb 0.00 in0.0 mm 0.00 in0.0 mm 0.00 in0.0 mm
06:27 AM 74.1°F23.4°C 66.7°F19.3°C 62% 4.0 mph NNW6.4 kmh NNW 4.1 mph6.6 kmh 30.07 in1018.3 mb 0.00 in0.0 mm 0.00 in0.0 mm 0.00 in0.0 mm
06:30 AM 74.0°F23.3°C 66.8°F19.3°C 63% 4.4 mph NE7.1 kmh NE 4.5 mph7.2 kmh 30.07 in1018.3 mb 0.00 in0.0 mm 0.00 in0.0 mm 0.00 in0.0 mm
06:33 AM 74.0°F23.3°C 67.4°F19.7°C 63% 6.5 mph NE10.5 kmh NE 6.5 mph10.5 kmh 30.07 in1018.3 mb 0.00 in0.0 mm 0.00 in0.0 mm 0.00 in0.0 mm
06:36 AM 73.9°F23.3°C 66.8°F19.3°C 62% 9.3 mph NE15.0 kmh NE 9.4 mph15.1 kmh 30.07 in1018.3 mb 0.00 in0.0 mm 0.00 in0.0 mm 0.00 in0.0 mm
06:39 AM 73.9°F23.3°C 67.0°F19.4°C 63% 12.1 mph NE19.5 kmh NE 12.2 mph19.6 kmh 30.07 in1018.3 mb 0.00 in0.0 mm 0.00 in0.0 mm 0.00 in0.0 mm
06:42 AM 73.9°F23.3°C 66.2°F19.0°C 63% 4.9 mph NNW7.9 kmh NNW 4.9 mph7.9 kmh 30.07 in1018.3 mb 0.00 in0.0 mm 0.00 in0.0 mm 0.00 in0.0 mm
06:45 AM 74.0°F23.3°C 66.9°F19.4°C 63% 3.6 mph NE5.8 kmh NE 3.6 mph5.8 kmh 30.07 in1018.3 mb 0.00 in0.0 mm 0.00 in0.0 mm 0.00 in0.0 mm
06:48 AM 73.9°F23.3°C 66.3°F19.1°C 62% 5.3 mph NNW8.5 kmh NNW 5.3 mph8.5 kmh 30.07 in1018.3 mb 0.00 in0.0 mm 0.00 in0.0 mm 0.00 in0.0 mm
06:57 AM 74.4°F23.6°C 67.4°F19.7°C 63% 4.4 mph NNW7.1 kmh NNW 4.4 mph7.1 kmh 30.07 in1018.3 mb 0.00 in0.0 mm 0.00 in0.0 mm 0.00 in0.0 mm
07:00 AM 75.0°F23.9°C 67.5°F19.7°C 63% 2.4 mph E3.9 kmh E 2.4 mph3.9 kmh 30.07 in1018.3 mb 0.00 in0.0 mm 0.00 in0.0 mm 0.00 in0.0 mm
07:03 AM 75.5°F24.2°C 67.6°F19.8°C 63% 4.0 mph NW6.4 kmh NW 4.0 mph6.4 kmh 30.08 in1018.6 mb 0.00 in0.0 mm 0.00 in0.0 mm 0.00 in0.0 mm
07:06 AM 76.1°F24.5°C 67.5°F19.7°C 62% 2.8 mph NW4.5 kmh NW 2.9 mph4.7 kmh 30.07 in1018.3 mb 0.00 in0.0 mm 0.00 in0.0 mm 0.00 in0.0 mm
07:09 AM 76.4°F24.7°C 67.2°F19.6°C 63% 2.0 mph SSW3.2 kmh SSW 2.0 mph3.2 kmh 30.08 in1018.6 mb 0.00 in0.0 mm 0.00 in0.0 mm 0.00 in0.0 mm
07:12 AM 77.1°F25.1°C 67.5°F19.7°C 63% 3.9 mph NNW6.3 kmh NNW 3.9 mph6.3 kmh 30.08 in1018.6 mb 0.00 in0.0 mm 0.00 in0.0 mm 0.00 in0.0 mm
07:15 AM 77.2°F25.1°C 67.7°F19.8°C 62% 4.4 mph W7.1 kmh W 4.5 mph7.2 kmh 30.08 in1018.6 mb 0.00 in0.0 mm 0.00 in0.0 mm 0.00 in0.0 mm
07:18 AM 77.8°F25.4°C 68.2°F20.1°C 62% 3.6 mph W5.8 kmh W 3.6 mph5.8 kmh 30.08 in1018.6 mb 0.00 in0.0 mm 0.00 in0.0 mm 0.00 in0.0 mm
07:21 AM 77.7°F25.4°C 67.7°F19.8°C 60% Calm Calm -- 30.08 in1018.6 mb 0.00 in0.0 mm 0.00 in0.0 mm 0.00 in0.0 mm
07:27 AM 77.7°F25.4°C 67.4°F19.7°C 58% 2.0 mph E3.2 kmh E 2.0 mph3.2 kmh 30.10 in1019.3 mb 0.00 in0.0 mm 0.00 in0.0 mm 0.00 in0.0 mm
07:30 AM 78.6°F25.9°C 67.6°F19.8°C 58% Calm Calm -- 30.10 in1019.3 mb 0.00 in0.0 mm 0.00 in0.0 mm 0.00 in0.0 mm
07:33 AM 78.5°F25.8°C 67.1°F19.5°C 58% 3.6 mph NNE5.8 kmh NNE 3.7 mph6.0 kmh 30.10 in1019.3 mb 0.00 in0.0 mm 0.00 in0.0 mm 0.00 in0.0 mm
07:36 AM 79.5°F26.4°C 68.6°F20.3°C 59% 4.8 mph WSW7.7 kmh WSW 4.8 mph7.7 kmh 30.10 in1019.3 mb 0.00 in0.0 mm 0.00 in0.0 mm 0.00 in0.0 mm
07:39 AM 79.6°F26.4°C 68.4°F20.2°C 59% 2.8 mph NW4.5 kmh NW 2.9 mph4.7 kmh 30.10 in1019.3 mb 0.00 in0.0 mm 0.00 in0.0 mm 0.00 in0.0 mm
07:42 AM 78.0°F25.6°C 67.8°F19.9°C 58% 2.8 mph 4.5 kmh 2.9 mph4.7 kmh 30.10 in1019.3 mb 0.00 in0.0 mm 0.00 in0.0 mm 0.00 in0.0 mm
07:45 AM 78.2°F25.7°C 68.3°F20.2°C 58% 2.0 mph NW3.2 kmh NW 2.0 mph3.2 kmh 30.10 in1019.3 mb 0.00 in0.0 mm 0.00 in0.0 mm 0.00 in0.0 mm
07:48 AM 78.5°F25.8°C 68.0°F20.0°C 58% 2.0 mph 3.2 kmh 2.0 mph3.2 kmh 30.10 in1019.3 mb 0.00 in0.0 mm 0.00 in0.0 mm 0.00 in0.0 mm
07:51 AM 78.0°F25.6°C 67.7°F19.8°C 58% 6.1 mph 9.8 kmh 6.1 mph9.8 kmh 30.11 in1019.6 mb 0.00 in0.0 mm 0.00 in0.0 mm 0.00 in0.0 mm
07:54 AM 77.6°F25.3°C 68.1°F20.1°C 59% 2.8 mph 4.5 kmh 2.9 mph4.7 kmh 30.11 in1019.6 mb 0.00 in0.0 mm 0.00 in0.0 mm 0.00 in0.0 mm
07:57 AM 78.1°F25.6°C 67.8°F19.9°C 58% 3.6 mph 5.8 kmh 3.7 mph6.0 kmh 30.11 in1019.6 mb 0.00 in0.0 mm 0.00 in0.0 mm 0.00 in0.0 mm
08:00 AM 78.2°F25.7°C 68.3°F20.2°C 58% 1.6 mph 2.6 kmh 1.6 mph2.6 kmh 30.11 in1019.6 mb 0.00 in0.0 mm 0.00 in0.0 mm 0.00 in0.0 mm
08:03 AM 79.3°F26.3°C 69.1°F20.6°C 59% 4.8 mph NNW7.7 kmh NNW 4.8 mph7.7 kmh 30.11 in1019.6 mb 0.00 in0.0 mm 0.00 in0.0 mm 0.00 in0.0 mm
08:09 AM 79.7°F26.5°C 68.4°F20.2°C 58% 3.2 mph WSW5.1 kmh WSW 3.2 mph5.1 kmh 30.11 in1019.6 mb 0.00 in0.0 mm 0.00 in0.0 mm 0.00 in0.0 mm
08:12 AM 81.6°F27.6°C 69.1°F20.6°C 58% Calm Calm -- 30.11 in1019.6 mb 0.00 in0.0 mm 0.00 in0.0 mm 0.00 in0.0 mm
08:15 AM 81.6°F27.6°C 68.4°F20.2°C 57% 6.0 mph NNW9.7 kmh NNW 6.0 mph9.7 kmh 30.11 in1019.6 mb 0.00 in0.0 mm 0.00 in0.0 mm 0.00 in0.0 mm
08:18 AM 80.8°F27.1°C 68.6°F20.3°C 56% 2.8 mph SW4.5 kmh SW 2.8 mph4.5 kmh 30.11 in1019.6 mb 0.00 in0.0 mm 0.00 in0.0 mm 0.00 in0.0 mm
08:21 AM 82.2°F27.9°C 68.8°F20.4°C 56% 0.4 mph S0.6 kmh S 0.4 mph0.6 kmh 30.11 in1019.6 mb 0.00 in0.0 mm 0.00 in0.0 mm 0.00 in0.0 mm
08:24 AM 83.3°F28.5°C 68.3°F20.2°C 56% 1.2 mph NNW1.9 kmh NNW 1.2 mph1.9 kmh 30.11 in1019.6 mb 0.00 in0.0 mm 0.00 in0.0 mm 0.00 in0.0 mm
08:27 AM 82.4°F28.0°C 68.7°F20.4°C 55% 4.4 mph ESE7.1 kmh ESE 4.5 mph7.2 kmh 30.11 in1019.6 mb 0.00 in0.0 mm 0.00 in0.0 mm 0.00 in0.0 mm
08:30 AM 81.5°F27.5°C 68.9°F20.5°C 54% 3.2 mph NE5.1 kmh NE 3.2 mph5.1 kmh 30.11 in1019.6 mb 0.00 in0.0 mm 0.00 in0.0 mm 0.00 in0.0 mm
08:33 AM 82.0°F27.8°C 68.3°F20.2°C 54% 6.1 mph ESE9.8 kmh ESE 6.1 mph9.8 kmh 30.11 in1019.6 mb 0.00 in0.0 mm 0.00 in0.0 mm 0.00 in0.0 mm
08:36 AM 82.7°F28.2°C 68.3°F20.2°C 55% 3.6 mph NNW5.8 kmh NNW 3.7 mph6.0 kmh 30.11 in1019.6 mb 0.00 in0.0 mm 0.00 in0.0 mm 0.00 in0.0 mm
08:39 AM 82.4°F28.0°C 68.9°F20.5°C 54% 5.3 mph NNE8.5 kmh NNE 5.3 mph8.5 kmh 30.11 in1019.6 mb 0.00 in0.0 mm 0.00 in0.0 mm 0.00 in0.0 mm
08:45 AM 81.6°F27.6°C 68.8°F20.4°C 53% 2.8 mph NE4.5 kmh NE 2.9 mph4.7 kmh 30.11 in1019.6 mb 0.00 in0.0 mm 0.00 in0.0 mm 0.00 in0.0 mm
08:48 AM 82.3°F27.9°C 68.1°F20.1°C 53% 6.0 mph ENE9.7 kmh ENE 6.0 mph9.7 kmh 30.11 in1019.6 mb 0.00 in0.0 mm 0.00 in0.0 mm 0.00 in0.0 mm
08:51 AM 82.0°F27.8°C 69.3°F20.7°C 54% 2.0 mph NNW3.2 kmh NNW 2.0 mph3.2 kmh 30.12 in1020.0 mb 0.00 in0.0 mm 0.00 in0.0 mm 0.00 in0.0 mm
08:54 AM 82.2°F27.9°C 68.6°F20.3°C 53% 2.0 mph NNW3.2 kmh NNW 2.0 mph3.2 kmh 30.12 in1020.0 mb 0.00 in0.0 mm 0.00 in0.0 mm 0.00 in0.0 mm
08:57 AM 84.1°F28.9°C 68.0°F20.0°C 53% 1.2 mph WNW1.9 kmh WNW 1.2 mph1.9 kmh 30.12 in1020.0 mb 0.00 in0.0 mm 0.00 in0.0 mm 0.00 in0.0 mm
09:00 AM 82.4°F28.0°C 68.5°F20.3°C 51% 7.3 mph NE11.7 kmh NE 7.3 mph11.7 kmh 30.13 in1020.3 mb 0.00 in0.0 mm 0.00 in0.0 mm 0.00 in0.0 mm
09:03 AM 81.8°F27.7°C 68.2°F20.1°C 52% 2.0 mph ENE3.2 kmh ENE 2.0 mph3.2 kmh 30.13 in1020.3 mb 0.00 in0.0 mm 0.00 in0.0 mm 0.00 in0.0 mm
09:06 AM 81.6°F27.6°C 68.4°F20.2°C 52% 3.2 mph E5.1 kmh E 3.3 mph5.3 kmh 30.13 in1020.3 mb 0.00 in0.0 mm 0.00 in0.0 mm 0.00 in0.0 mm
09:09 AM 82.9°F28.3°C 67.6°F19.8°C 51% 6.4 mph ESE10.3 kmh ESE 6.4 mph10.3 kmh 30.13 in1020.3 mb 0.00 in0.0 mm 0.00 in0.0 mm 0.00 in0.0 mm
09:12 AM 82.3°F27.9°C 68.4°F20.2°C 51% 4.8 mph NE7.7 kmh NE 4.9 mph7.9 kmh 30.13 in1020.3 mb 0.00 in0.0 mm 0.00 in0.0 mm 0.00 in0.0 mm
09:15 AM 82.1°F27.8°C 68.2°F20.1°C 51% 6.1 mph NE9.8 kmh NE 6.1 mph9.8 kmh 30.13 in1020.3 mb 0.00 in0.0 mm 0.00 in0.0 mm 0.00 in0.0 mm
09:18 AM 80.5°F26.9°C 67.7°F19.8°C 51% 8.5 mph NNE13.7 kmh NNE 8.6 mph13.8 kmh 30.14 in1020.7 mb 0.00 in0.0 mm 0.00 in0.0 mm 0.00 in0.0 mm
09:24 AM 81.8°F27.7°C 68.2°F20.1°C 51% 1.6 mph W2.6 kmh W 1.6 mph2.6 kmh 30.13 in1020.3 mb 0.00 in0.0 mm 0.00 in0.0 mm 0.00 in0.0 mm
09:27 AM 81.2°F27.3°C 68.0°F20.0°C 51% 7.2 mph ENE11.6 kmh ENE 7.2 mph11.6 kmh 30.14 in1020.7 mb 0.00 in0.0 mm 0.00 in0.0 mm 0.00 in0.0 mm
09:30 AM 81.8°F27.7°C 67.8°F19.9°C 51% 2.0 mph NE3.2 kmh NE 2.0 mph3.2 kmh 30.14 in1020.7 mb 0.00 in0.0 mm 0.00 in0.0 mm 0.00 in0.0 mm
09:33 AM 80.5°F26.9°C 68.3°F20.2°C 50% 5.2 mph NNE8.4 kmh NNE 5.2 mph8.4 kmh 30.14 in1020.7 mb 0.00 in0.0 mm 0.00 in0.0 mm 0.00 in0.0 mm
09:36 AM 80.4°F26.9°C 67.7°F19.8°C 50% 2.0 mph NE3.2 kmh NE 2.0 mph3.2 kmh 30.14 in1020.7 mb 0.00 in0.0 mm 0.00 in0.0 mm 0.00 in0.0 mm
09:39 AM 81.5°F27.5°C 68.3°F20.2°C 51% 1.6 mph E2.6 kmh E 1.6 mph2.6 kmh 30.14 in1020.7 mb 0.00 in0.0 mm 0.00 in0.0 mm 0.00 in0.0 mm
09:42 AM 81.6°F27.6°C 68.5°F20.3°C 51% 5.2 mph ENE8.4 kmh ENE 5.3 mph8.5 kmh 30.14 in1020.7 mb 0.00 in0.0 mm 0.00 in0.0 mm 0.00 in0.0 mm
09:45 AM 79.9°F26.6°C 67.9°F19.9°C 50% 4.9 mph NNW7.9 kmh NNW 4.9 mph7.9 kmh 30.14 in1020.7 mb 0.00 in0.0 mm 0.00 in0.0 mm 0.00 in0.0 mm
09:48 AM 80.2°F26.8°C 67.6°F19.8°C 51% 4.0 mph NNW6.4 kmh NNW 4.1 mph6.6 kmh 30.14 in1020.7 mb 0.00 in0.0 mm 0.00 in0.0 mm 0.00 in0.0 mm
09:51 AM 80.0°F26.7°C 67.9°F19.9°C 51% 2.8 mph NE4.5 kmh NE 2.9 mph4.7 kmh 30.14 in1020.7 mb 0.00 in0.0 mm 0.00 in0.0 mm 0.00 in0.0 mm
09:54 AM 79.9°F26.6°C 68.1°F20.1°C 51% 3.6 mph NNW5.8 kmh NNW 3.7 mph6.0 kmh 30.14 in1020.7 mb 0.00 in0.0 mm 0.00 in0.0 mm 0.00 in0.0 mm
09:57 AM 79.7°F26.5°C 67.7°F19.8°C 52% 4.8 mph NNE7.7 kmh NNE 4.8 mph7.7 kmh 30.14 in1020.7 mb 0.00 in0.0 mm 0.00 in0.0 mm 0.00 in0.0 mm
10:00 AM 78.8°F26.0°C 67.6°F19.8°C 51% 5.7 mph NE9.2 kmh NE 5.7 mph9.2 kmh 30.14 in1020.7 mb 0.00 in0.0 mm 0.00 in0.0 mm 0.00 in0.0 mm
10:03 AM 78.7°F25.9°C 67.3°F19.6°C 51% 6.7 mph NE10.8 kmh NE 6.8 mph10.9 kmh 30.14 in1020.7 mb 0.00 in0.0 mm 0.00 in0.0 mm 0.00 in0.0 mm
10:06 AM 78.1°F25.6°C 67.1°F19.5°C 52% 6.4 mph NNE10.3 kmh NNE 6.4 mph10.3 kmh 30.14 in1020.7 mb 0.00 in0.0 mm 0.00 in0.0 mm 0.00 in0.0 mm
10:09 AM 77.8°F25.4°C 66.7°F19.3°C 52% 9.2 mph NE14.8 kmh NE 9.2 mph14.8 kmh 30.14 in1020.7 mb 0.00 in0.0 mm 0.00 in0.0 mm 0.00 in0.0 mm
10:12 AM 77.6°F25.3°C 67.0°F19.4°C 53% 6.1 mph NNW9.8 kmh NNW 6.1 mph9.8 kmh 30.14 in1020.7 mb 0.00 in0.0 mm 0.00 in0.0 mm 0.00 in0.0 mm
10:15 AM 77.5°F25.3°C 66.3°F19.1°C 53% 5.6 mph NE9.0 kmh NE 5.7 mph9.2 kmh 30.14 in1020.7 mb 0.00 in0.0 mm 0.00 in0.0 mm 0.00 in0.0 mm
10:21 AM 77.5°F25.3°C 66.9°F19.4°C 52% 2.0 mph NNW3.2 kmh NNW 2.0 mph3.2 kmh 30.14 in1020.7 mb 0.00 in0.0 mm 0.00 in0.0 mm 0.00 in0.0 mm
10:27 AM 77.0°F25.0°C 66.2°F19.0°C 52% 1.2 mph NNW1.9 kmh NNW 1.2 mph1.9 kmh 30.14 in1020.7 mb 0.00 in0.0 mm 0.00 in0.0 mm 0.00 in0.0 mm
10:30 AM 77.1°F25.1°C 66.0°F18.9°C 52% 0.8 mph NNW1.3 kmh NNW 0.8 mph1.3 kmh 30.14 in1020.7 mb 0.00 in0.0 mm 0.00 in0.0 mm 0.00 in0.0 mm
10:36 AM 76.4°F24.7°C 66.3°F19.1°C 53% 3.2 mph ESE5.1 kmh ESE 3.3 mph5.3 kmh 30.14 in1020.7 mb 0.00 in0.0 mm 0.00 in0.0 mm 0.00 in0.0 mm
10:39 AM 76.4°F24.7°C 65.5°F18.6°C 53% 2.0 mph SE3.2 kmh SE 2.0 mph3.2 kmh 30.14 in1020.7 mb 0.00 in0.0 mm 0.00 in0.0 mm 0.00 in0.0 mm
10:45 AM 76.0°F24.4°C 65.4°F18.6°C 55% 8.0 mph SE12.9 kmh SE 8.0 mph12.9 kmh 30.14 in1020.7 mb 0.00 in0.0 mm 0.00 in0.0 mm 0.00 in0.0 mm
10:48 AM 75.7°F24.3°C 65.6°F18.7°C 56% 2.4 mph SE3.9 kmh SE 2.4 mph3.9 kmh 30.13 in1020.3 mb 0.00 in0.0 mm 0.00 in0.0 mm 0.00 in0.0 mm
10:51 AM 75.4°F24.1°C 66.5°F19.2°C 57% 5.2 mph ESE8.4 kmh ESE 5.3 mph8.5 kmh 30.13 in1020.3 mb 0.00 in0.0 mm 0.00 in0.0 mm 0.00 in0.0 mm
10:54 AM 75.3°F24.1°C 66.3°F19.1°C 57% 2.0 mph E3.2 kmh E 2.0 mph3.2 kmh 30.13 in1020.3 mb 0.00 in0.0 mm 0.00 in0.0 mm 0.00 in0.0 mm
11:00 AM 75.2°F24.0°C 66.5°F19.2°C 57% 3.6 mph ESE5.8 kmh ESE 3.7 mph6.0 kmh 30.13 in1020.3 mb 0.00 in0.0 mm 0.00 in0.0 mm 0.00 in0.0 mm
11:03 AM 75.1°F23.9°C 66.8°F19.3°C 57% 6.8 mph NNW10.9 kmh NNW 6.8 mph10.9 kmh 30.13 in1020.3 mb 0.00 in0.0 mm 0.00 in0.0 mm 0.00 in0.0 mm
11:06 AM 75.3°F24.1°C 66.8°F19.3°C 58% 2.8 mph ENE4.5 kmh ENE 2.9 mph4.7 kmh 30.14 in1020.7 mb 0.00 in0.0 mm 0.00 in0.0 mm 0.00 in0.0 mm
11:09 AM 75.5°F24.2°C 66.8°F19.3°C 58% 4.5 mph ESE7.2 kmh ESE 4.5 mph7.2 kmh 30.13 in1020.3 mb 0.00 in0.0 mm 0.00 in0.0 mm 0.00 in0.0 mm
11:15 AM 75.5°F24.2°C 66.4°F19.1°C 58% 2.8 mph NNW4.5 kmh NNW 2.8 mph4.5 kmh 30.13 in1020.3 mb 0.00 in0.0 mm 0.00 in0.0 mm 0.00 in0.0 mm
11:18 AM 75.8°F24.3°C 66.4°F19.1°C 59% 4.9 mph NNW7.9 kmh NNW 4.9 mph7.9 kmh 30.13 in1020.3 mb 0.00 in0.0 mm 0.00 in0.0 mm 0.00 in0.0 mm
11:24 AM 76.3°F24.6°C 66.4°F19.1°C 58% 4.0 mph E6.4 kmh E 4.1 mph6.6 kmh 30.13 in1020.3 mb 0.00 in0.0 mm 0.00 in0.0 mm 0.00 in0.0 mm
11:27 AM 76.6°F24.8°C 66.2°F19.0°C 58% 3.6 mph E5.8 kmh E 3.6 mph5.8 kmh 30.13 in1020.3 mb 0.00 in0.0 mm 0.00 in0.0 mm 0.00 in0.0 mm
11:30 AM 76.4°F24.7°C 65.5°F18.6°C 57% 5.7 mph E9.2 kmh E 5.7 mph9.2 kmh 30.13 in1020.3 mb 0.00 in0.0 mm 0.00 in0.0 mm 0.00 in0.0 mm
11:33 AM 76.7°F24.8°C 66.1°F18.9°C 57% 2.0 mph NNW3.2 kmh NNW 2.0 mph3.2 kmh 30.13 in1020.3 mb 0.00 in0.0 mm 0.00 in0.0 mm 0.00 in0.0 mm
11:36 AM 76.9°F24.9°C 66.3°F19.1°C 57% 3.2 mph NE5.1 kmh NE 3.3 mph5.3 kmh 30.13 in1020.3 mb 0.00 in0.0 mm 0.00 in0.0 mm 0.00 in0.0 mm
11:39 AM 77.1°F25.1°C 65.7°F18.7°C 56% 8.1 mph NNE13.0 kmh NNE 8.2 mph13.2 kmh 30.13 in1020.3 mb 0.00 in0.0 mm 0.00 in0.0 mm 0.00 in0.0 mm
11:42 AM 77.3°F25.2°C 65.6°F18.7°C 55% 6.0 mph NNW9.7 kmh NNW 6.1 mph9.8 kmh 30.13 in1020.3 mb 0.00 in0.0 mm 0.00 in0.0 mm 0.00 in0.0 mm
11:45 AM 77.2°F25.1°C 65.7°F18.7°C 55% 4.1 mph NNW6.6 kmh NNW 4.1 mph6.6 kmh 30.13 in1020.3 mb 0.00 in0.0 mm 0.00 in0.0 mm 0.00 in0.0 mm
11:48 AM 77.1°F25.1°C 66.8°F19.3°C 56% 1.6 mph SSE2.6 kmh SSE 1.6 mph2.6 kmh 30.13 in1020.3 mb 0.00 in0.0 mm 0.00 in0.0 mm 0.00 in0.0 mm
11:51 AM 76.8°F24.9°C 66.4°F19.1°C 56% 2.8 mph SSW4.5 kmh SSW 2.8 mph4.5 kmh 30.14 in1020.7 mb 0.00 in0.0 mm 0.00 in0.0 mm 0.00 in0.0 mm
11:54 AM 76.7°F24.8°C 66.9°F19.4°C 57% 2.4 mph NNW3.9 kmh NNW 2.4 mph3.9 kmh 30.14 in1020.7 mb 0.00 in0.0 mm 0.00 in0.0 mm 0.00 in0.0 mm
12:00 PM 76.9°F24.9°C 66.9°F19.4°C 57% 0.8 mph WNW1.3 kmh WNW 0.8 mph1.3 kmh 30.14 in1020.7 mb 0.00 in0.0 mm 0.00 in0.0 mm 0.00 in0.0 mm
12:03 PM 76.2°F24.6°C 67.0°F19.4°C 57% 2.0 mph NW3.2 kmh NW 2.0 mph3.2 kmh 30.14 in1020.7 mb 0.00 in0.0 mm 0.00 in0.0 mm 0.00 in0.0 mm
12:06 PM 76.9°F24.9°C 67.3°F19.6°C 57% 0.8 mph NW1.3 kmh NW 0.8 mph1.3 kmh 30.14 in1020.7 mb 0.00 in0.0 mm 0.00 in0.0 mm 0.00 in0.0 mm
12:09 PM 76.8°F24.9°C 66.7°F19.3°C 56% 2.8 mph NW4.5 kmh NW 2.8 mph4.5 kmh 30.14 in1020.7 mb 0.00 in0.0 mm 0.00 in0.0 mm 0.00 in0.0 mm
12:12 PM 77.1°F25.1°C 66.7°F19.3°C 56% 2.4 mph NW3.9 kmh NW 2.4 mph3.9 kmh 30.14 in1020.7 mb 0.00 in0.0 mm 0.00 in0.0 mm 0.00 in0.0 mm
12:15 PM 76.7°F24.8°C 67.3°F19.6°C 56% 0.8 mph NNW1.3 kmh NNW 0.8 mph1.3 kmh 30.14 in1020.7 mb 0.00 in0.0 mm 0.00 in0.0 mm 0.00 in0.0 mm
12:18 PM 75.9°F24.4°C 66.6°F19.2°C 56% 2.4 mph NNW3.9 kmh NNW 2.4 mph3.9 kmh 30.14 in1020.7 mb 0.00 in0.0 mm 0.00 in0.0 mm 0.00 in0.0 mm
12:24 PM 75.3°F24.1°C 67.2°F19.6°C 57% 3.6 mph NE5.8 kmh NE 3.7 mph6.0 kmh 30.14 in1020.7 mb 0.00 in0.0 mm 0.00 in0.0 mm 0.00 in0.0 mm
12:27 PM 75.3°F24.1°C 67.1°F19.5°C 56% 2.8 mph NE4.5 kmh NE 2.8 mph4.5 kmh 30.14 in1020.7 mb 0.00 in0.0 mm 0.00 in0.0 mm 0.00 in0.0 mm
12:30 PM 74.8°F23.8°C 67.7°F19.8°C 58% 2.8 mph NNE4.5 kmh NNE 2.8 mph4.5 kmh 30.15 in1021.0 mb 0.00 in0.0 mm 0.00 in0.0 mm 0.00 in0.0 mm
12:33 PM 74.8°F23.8°C 67.1°F19.5°C 59% 5.7 mph 9.2 kmh 5.7 mph9.2 kmh 30.15 in1021.0 mb 0.00 in0.0 mm 0.00 in0.0 mm 0.00 in0.0 mm
12:39 PM 73.4°F23.0°C 69.0°F20.6°C 62% 4.4 mph NNW7.1 kmh NNW 4.4 mph7.1 kmh 30.15 in1021.0 mb 0.00 in0.0 mm 0.00 in0.0 mm 0.00 in0.0 mm
12:45 PM 71.9°F22.2°C 68.6°F20.3°C 64% 4.0 mph NNE6.4 kmh NNE 4.0 mph6.4 kmh 30.15 in1021.0 mb 0.00 in0.0 mm 0.00 in0.0 mm 0.00 in0.0 mm
12:48 PM 72.7°F22.6°C 68.7°F20.4°C 64% 2.0 mph NNE3.2 kmh NNE 2.0 mph3.2 kmh 30.15 in1021.0 mb 0.00 in0.0 mm 0.00 in0.0 mm 0.00 in0.0 mm
12:54 PM 73.3°F22.9°C 68.6°F20.3°C 64% 0.8 mph ENE1.3 kmh ENE 0.8 mph1.3 kmh 30.15 in1021.0 mb 0.00 in0.0 mm 0.00 in0.0 mm 0.00 in0.0 mm
12:57 PM 73.0°F22.8°C 69.3°F20.7°C 65% 4.4 mph NNW7.1 kmh NNW 4.4 mph7.1 kmh 30.14 in1020.7 mb 0.00 in0.0 mm 0.00 in0.0 mm 0.00 in0.0 mm
01:00 PM 72.5°F22.5°C 68.8°F20.4°C 64% 4.4 mph NE7.1 kmh NE 4.5 mph7.2 kmh 30.14 in1020.7 mb 0.00 in0.0 mm 0.00 in0.0 mm 0.00 in0.0 mm
01:03 PM 73.1°F22.8°C 69.1°F20.6°C 65% 2.0 mph ENE3.2 kmh ENE 2.0 mph3.2 kmh 30.14 in1020.7 mb 0.00 in0.0 mm 0.00 in0.0 mm 0.00 in0.0 mm
01:06 PM 73.9°F23.3°C 69.7°F20.9°C 66% Calm Calm -- 30.14 in1020.7 mb 0.00 in0.0 mm 0.00 in0.0 mm 0.00 in0.0 mm
01:09 PM 74.2°F23.4°C 69.6°F20.9°C 66% 0.8 mph E1.3 kmh E 0.8 mph1.3 kmh 30.14 in1020.7 mb 0.00 in0.0 mm 0.00 in0.0 mm 0.00 in0.0 mm
01:12 PM 74.3°F23.5°C 69.1°F20.6°C 65% 2.0 mph NE3.2 kmh NE 2.0 mph3.2 kmh 30.14 in1020.7 mb 0.00 in0.0 mm 0.00 in0.0 mm 0.00 in0.0 mm
01:15 PM 75.0°F23.9°C 69.1°F20.6°C 65% 2.4 mph NNW3.9 kmh NNW 2.4 mph3.9 kmh 30.14 in1020.7 mb 0.00 in0.0 mm 0.00 in0.0 mm 0.00 in0.0 mm
01:18 PM 75.1°F23.9°C 68.8°F20.4°C 64% 0.8 mph NNW1.3 kmh NNW 0.8 mph1.3 kmh 30.13 in1020.3 mb 0.00 in0.0 mm 0.00 in0.0 mm 0.00 in0.0 mm
01:21 PM 75.8°F24.3°C 68.7°F20.4°C 64% 5.7 mph SE9.2 kmh SE 5.7 mph9.2 kmh 30.13 in1020.3 mb 0.00 in0.0 mm 0.00 in0.0 mm 0.00 in0.0 mm
01:24 PM 76.6°F24.8°C 68.9°F20.5°C 64% 2.0 mph NNW3.2 kmh NNW 2.0 mph3.2 kmh 30.14 in1020.7 mb 0.00 in0.0 mm 0.00 in0.0 mm 0.00 in0.0 mm
01:27 PM 77.2°F25.1°C 68.9°F20.5°C 64% 4.8 mph E7.7 kmh E 4.9 mph7.9 kmh 30.13 in1020.3 mb 0.00 in0.0 mm 0.00 in0.0 mm 0.00 in0.0 mm
01:30 PM 78.4°F25.8°C 69.5°F20.8°C 62% 3.6 mph ESE5.8 kmh ESE 3.7 mph6.0 kmh 30.13 in1020.3 mb 0.00 in0.0 mm 0.00 in0.0 mm 0.00 in0.0 mm
01:33 PM 78.5°F25.8°C 69.1°F20.6°C 61% 1.6 mph E2.6 kmh E 1.6 mph2.6 kmh 30.13 in1020.3 mb 0.00 in0.0 mm 0.00 in0.0 mm 0.00 in0.0 mm
01:36 PM 79.5°F26.4°C 69.7°F20.9°C 61% 2.8 mph NNW4.5 kmh NNW 2.9 mph4.7 kmh 30.13 in1020.3 mb 0.00 in0.0 mm 0.00 in0.0 mm 0.00 in0.0 mm
01:39 PM 80.0°F26.7°C 68.4°F20.2°C 60% 2.8 mph SE4.5 kmh SE 2.8 mph4.5 kmh 30.13 in1020.3 mb 0.00 in0.0 mm 0.00 in0.0 mm 0.00 in0.0 mm
01:42 PM 79.0°F26.1°C 68.2°F20.1°C 59% Calm Calm -- 30.13 in1020.3 mb 0.00 in0.0 mm 0.00 in0.0 mm 0.00 in0.0 mm
01:45 PM 79.1°F26.2°C 68.1°F20.1°C 59% 0.4 mph SE0.6 kmh SE 0.4 mph0.6 kmh 30.13 in1020.3 mb 0.00 in0.0 mm 0.00 in0.0 mm 0.00 in0.0 mm
01:48 PM 80.5°F26.9°C 68.5°F20.3°C 59% Calm Calm -- 30.13 in1020.3 mb 0.00 in0.0 mm 0.00 in0.0 mm 0.00 in0.0 mm
01:51 PM 80.6°F27.0°C 69.3°F20.7°C 59% 1.2 mph E1.9 kmh E 1.2 mph1.9 kmh 30.13 in1020.3 mb 0.00 in0.0 mm 0.00 in0.0 mm 0.00 in0.0 mm
01:54 PM 79.9°F26.6°C 68.9°F20.5°C 58% 0.4 mph ENE0.6 kmh ENE 0.4 mph0.6 kmh 30.13 in1020.3 mb 0.00 in0.0 mm 0.00 in0.0 mm 0.00 in0.0 mm
01:57 PM 80.2°F26.8°C 68.6°F20.3°C 58% 0.4 mph ENE0.6 kmh ENE 0.4 mph0.6 kmh 30.13 in1020.3 mb 0.00 in0.0 mm 0.00 in0.0 mm 0.00 in0.0 mm
02:00 PM 79.8°F26.6°C 69.1°F20.6°C 57% 2.4 mph NE3.9 kmh NE 2.4 mph3.9 kmh 30.13 in1020.3 mb 0.00 in0.0 mm 0.00 in0.0 mm 0.00 in0.0 mm
02:03 PM 80.0°F26.7°C 69.4°F20.8°C 58% 5.2 mph 8.4 kmh 5.3 mph8.5 kmh 30.13 in1020.3 mb 0.00 in0.0 mm 0.00 in0.0 mm 0.00 in0.0 mm
02:06 PM 79.1°F26.2°C 68.3°F20.2°C 57% 2.4 mph NE3.9 kmh NE 2.4 mph3.9 kmh 30.13 in1020.3 mb 0.00 in0.0 mm 0.00 in0.0 mm 0.00 in0.0 mm
02:09 PM 80.3°F26.8°C 69.1°F20.6°C 57% 1.2 mph NNE1.9 kmh NNE 1.2 mph1.9 kmh 30.13 in1020.3 mb 0.00 in0.0 mm 0.00 in0.0 mm 0.00 in0.0 mm
02:12 PM 80.2°F26.8°C 68.9°F20.5°C 57% 1.6 mph NE2.6 kmh NE 1.6 mph2.6 kmh 30.13 in1020.3 mb 0.00 in0.0 mm 0.00 in0.0 mm 0.00 in0.0 mm
02:15 PM 78.4°F25.8°C 68.9°F20.5°C 56% 2.8 mph NNE4.5 kmh NNE 2.9 mph4.7 kmh 30.13 in1020.3 mb 0.00 in0.0 mm 0.00 in0.0 mm 0.00 in0.0 mm
02:18 PM 80.2°F26.8°C 68.9°F20.5°C 57% 1.6 mph 2.6 kmh 1.6 mph2.6 kmh 30.13 in1020.3 mb 0.00 in0.0 mm 0.00 in0.0 mm 0.00 in0.0 mm
02:21 PM 78.6°F25.9°C 69.5°F20.8°C 57% 3.6 mph 5.8 kmh 3.7 mph6.0 kmh 30.13 in1020.3 mb 0.00 in0.0 mm 0.00 in0.0 mm 0.00 in0.0 mm
02:24 PM 78.2°F25.7°C 69.6°F20.9°C 57% 2.4 mph NE3.9 kmh NE 2.4 mph3.9 kmh 30.13 in1020.3 mb 0.00 in0.0 mm 0.00 in0.0 mm 0.00 in0.0 mm
02:27 PM 77.7°F25.4°C 69.2°F20.7°C 58% 7.7 mph NE12.4 kmh NE 7.7 mph12.4 kmh 30.13 in1020.3 mb 0.00 in0.0 mm 0.00 in0.0 mm 0.00 in0.0 mm
02:30 PM 77.5°F25.3°C 69.6°F20.9°C 57% 3.6 mph ENE5.8 kmh ENE 3.6 mph5.8 kmh 30.13 in1020.3 mb 0.00 in0.0 mm 0.00 in0.0 mm 0.00 in0.0 mm
02:33 PM 76.6°F24.8°C 69.4°F20.8°C 58% 8.0 mph NNW12.9 kmh NNW 8.0 mph12.9 kmh 30.13 in1020.3 mb 0.00 in0.0 mm 0.00 in0.0 mm 0.00 in0.0 mm
02:36 PM 76.7°F24.8°C 69.5°F20.8°C 59% 4.8 mph NE7.7 kmh NE 4.9 mph7.9 kmh 30.13 in1020.3 mb 0.00 in0.0 mm 0.00 in0.0 mm 0.00 in0.0 mm
02:39 PM 76.1°F24.5°C 68.4°F20.2°C 59% 6.1 mph ENE9.8 kmh ENE 6.1 mph9.8 kmh 30.13 in1020.3 mb 0.00 in0.0 mm 0.00 in0.0 mm 0.00 in0.0 mm
02:42 PM 76.8°F24.9°C 68.6°F20.3°C 59% 3.6 mph NE5.8 kmh NE 3.6 mph5.8 kmh 30.13 in1020.3 mb 0.00 in0.0 mm 0.00 in0.0 mm 0.00 in0.0 mm
02:45 PM 77.7°F25.4°C 68.6°F20.3°C 59% 4.0 mph 6.4 kmh 4.1 mph6.6 kmh 30.13 in1020.3 mb 0.00 in0.0 mm 0.00 in0.0 mm 0.00 in0.0 mm
02:48 PM 77.3°F25.2°C 68.2°F20.1°C 57% 4.4 mph 7.1 kmh 4.5 mph7.2 kmh 30.13 in1020.3 mb 0.00 in0.0 mm 0.00 in0.0 mm 0.00 in0.0 mm
02:51 PM 78.0°F25.6°C 69.0°F20.6°C 57% 5.3 mph 8.5 kmh 5.3 mph8.5 kmh 30.13 in1020.3 mb 0.00 in0.0 mm 0.00 in0.0 mm 0.00 in0.0 mm
02:54 PM 79.4°F26.3°C 68.7°F20.4°C 58% 5.7 mph NE9.2 kmh NE 5.7 mph9.2 kmh 30.13 in1020.3 mb 0.00 in0.0 mm 0.00 in0.0 mm 0.00 in0.0 mm
02:57 PM 79.7°F26.5°C 69.1°F20.6°C 57% 6.4 mph NE10.3 kmh NE 6.4 mph10.3 kmh 30.13 in1020.3 mb 0.00 in0.0 mm 0.00 in0.0 mm 0.00 in0.0 mm
03:00 PM 78.6°F25.9°C 69.4°F20.8°C 57% 8.1 mph NE13.0 kmh NE 8.2 mph13.2 kmh 30.13 in1020.3 mb 0.00 in0.0 mm 0.00 in0.0 mm 0.00 in0.0 mm
03:03 PM 78.0°F25.6°C 68.3°F20.2°C 56% 8.7 mph 14.0 kmh 8.7 mph14.0 kmh 30.13 in1020.3 mb 0.00 in0.0 mm 0.00 in0.0 mm 0.00 in0.0 mm
03:06 PM 80.2°F26.8°C 69.7°F20.9°C 57% Calm Calm -- 30.13 in1020.3 mb 0.00 in0.0 mm 0.00 in0.0 mm 0.00 in0.0 mm
03:09 PM 81.5°F27.5°C 69.4°F20.8°C 57% 2.0 mph 3.2 kmh 2.0 mph3.2 kmh 30.13 in1020.3 mb 0.00 in0.0 mm 0.00 in0.0 mm 0.00 in0.0 mm
03:12 PM 81.6°F27.6°C 69.8°F21.0°C 55% 4.8 mph NNW7.7 kmh NNW 4.8 mph7.7 kmh 30.13 in1020.3 mb 0.00 in0.0 mm 0.00 in0.0 mm 0.00 in0.0 mm
03:15 PM 80.4°F26.9°C 69.4°F20.8°C 54% 4.4 mph NNE7.1 kmh NNE 4.4 mph7.1 kmh 30.13 in1020.3 mb 0.00 in0.0 mm 0.00 in0.0 mm 0.00 in0.0 mm
03:18 PM 81.2°F27.3°C 69.5°F20.8°C 53% 4.0 mph NE6.4 kmh NE 4.1 mph6.6 kmh 30.13 in1020.3 mb 0.00 in0.0 mm 0.00 in0.0 mm 0.00 in0.0 mm
03:24 PM 80.4°F26.9°C 69.4°F20.8°C 52% 9.6 mph NNW15.4 kmh NNW 9.6 mph15.4 kmh 30.13 in1020.3 mb 0.00 in0.0 mm 0.00 in0.0 mm 0.00 in0.0 mm
03:27 PM 79.7°F26.5°C 69.0°F20.6°C 52% 6.1 mph NE9.8 kmh NE 6.1 mph9.8 kmh 30.13 in1020.3 mb 0.00 in0.0 mm 0.00 in0.0 mm 0.00 in0.0 mm
03:30 PM 80.8°F27.1°C 69.1°F20.6°C 53% Calm Calm -- -- 0.00 in0.0 mm 0.00 in0.0 mm 0.00 in0.0 mm
03:36 PM 81.8°F27.7°C 68.7°F20.4°C 52% 8.5 mph NNW13.7 kmh NNW 8.6 mph13.8 kmh 30.11 in1019.6 mb 0.00 in0.0 mm 0.00 in0.0 mm 0.00 in0.0 mm
03:39 PM 81.8°F27.7°C 69.0°F20.6°C 52% 6.1 mph 9.8 kmh 6.1 mph9.8 kmh 30.11 in1019.6 mb 0.00 in0.0 mm 0.00 in0.0 mm 0.00 in0.0 mm
03:42 PM 82.4°F28.0°C 68.6°F20.3°C 51% 11.1 mph NNW17.9 kmh NNW 11.1 mph17.9 kmh 30.11 in1019.6 mb 0.00 in0.0 mm 0.00 in0.0 mm 0.00 in0.0 mm
03:45 PM 82.4°F28.0°C 68.6°F20.3°C 51% Calm Calm -- 30.11 in1019.6 mb 0.00 in0.0 mm 0.00 in0.0 mm 0.00 in0.0 mm
03:48 PM 82.4°F28.0°C 68.5°F20.3°C 50% 8.1 mph NNW13.0 kmh NNW 8.1 mph13.0 kmh 30.11 in1019.6 mb 0.00 in0.0 mm 0.00 in0.0 mm 0.00 in0.0 mm
03:51 PM 82.0°F27.8°C 68.5°F20.3°C 50% Calm Calm -- 30.11 in1019.6 mb 0.00 in0.0 mm 0.00 in0.0 mm 0.00 in0.0 mm
03:54 PM 83.1°F28.4°C 68.7°F20.4°C 50% 6.0 mph 9.7 kmh 6.0 mph9.7 kmh 30.11 in1019.6 mb 0.00 in0.0 mm 0.00 in0.0 mm 0.00 in0.0 mm
03:57 PM 83.0°F28.3°C 68.2°F20.1°C 50% 6.4 mph NNE10.3 kmh NNE 6.4 mph10.3 kmh 30.11 in1019.6 mb 0.00 in0.0 mm 0.00 in0.0 mm 0.00 in0.0 mm
04:00 PM 84.9°F29.4°C 69.0°F20.6°C 50% 2.4 mph ENE3.9 kmh ENE 2.4 mph3.9 kmh 30.10 in1019.3 mb 0.00 in0.0 mm 0.00 in0.0 mm 0.00 in0.0 mm
04:06 PM 86.5°F30.3°C 67.6°F19.8°C 48% 2.4 mph SE3.9 kmh SE 2.4 mph3.9 kmh 30.10 in1019.3 mb 0.00 in0.0 mm 0.00 in0.0 mm 0.00 in0.0 mm
04:09 PM 86.6°F30.3°C 67.4°F19.7°C 48% 4.5 mph ESE7.2 kmh ESE 4.5 mph7.2 kmh 30.10 in1019.3 mb 0.00 in0.0 mm 0.00 in0.0 mm 0.00 in0.0 mm
04:12 PM 87.5°F30.8°C 67.3°F19.6°C 47% 5.6 mph ESE9.0 kmh ESE 5.7 mph9.2 kmh 30.10 in1019.3 mb 0.00 in0.0 mm 0.00 in0.0 mm 0.00 in0.0 mm
04:18 PM 86.6°F30.3°C 67.8°F19.9°C 47% 5.3 mph 8.5 kmh 5.3 mph8.5 kmh 30.10 in1019.3 mb 0.00 in0.0 mm 0.00 in0.0 mm 0.00 in0.0 mm
04:21 PM 86.0°F30.0°C 65.8°F18.8°C 45% 6.5 mph ESE10.5 kmh ESE 6.5 mph10.5 kmh 30.10 in1019.3 mb 0.00 in0.0 mm 0.00 in0.0 mm 0.00 in0.0 mm
04:24 PM 85.8°F29.9°C 66.1°F18.9°C 46% 4.0 mph SE6.4 kmh SE 4.0 mph6.4 kmh 30.10 in1019.3 mb 0.00 in0.0 mm 0.00 in0.0 mm 0.00 in0.0 mm
04:27 PM 84.1°F28.9°C 66.2°F19.0°C 47% 2.8 mph NE4.5 kmh NE 2.8 mph4.5 kmh 30.10 in1019.3 mb 0.00 in0.0 mm 0.00 in0.0 mm 0.00 in0.0 mm
04:30 PM 84.9°F29.4°C 67.0°F19.4°C 47% 3.6 mph NE5.8 kmh NE 3.7 mph6.0 kmh 30.10 in1019.3 mb 0.00 in0.0 mm 0.00 in0.0 mm 0.00 in0.0 mm
04:33 PM 84.9°F29.4°C 66.6°F19.2°C 46% 3.2 mph NE5.1 kmh NE 3.2 mph5.1 kmh 30.10 in1019.3 mb 0.00 in0.0 mm 0.00 in0.0 mm 0.00 in0.0 mm
04:36 PM 85.7°F29.8°C 67.3°F19.6°C 47% 2.0 mph SE3.2 kmh SE 2.0 mph3.2 kmh 30.10 in1019.3 mb 0.00 in0.0 mm 0.00 in0.0 mm 0.00 in0.0 mm
04:39 PM 86.7°F30.4°C 67.1°F19.5°C 46% 1.6 mph NNW2.6 kmh NNW 1.6 mph2.6 kmh 30.10 in1019.3 mb 0.00 in0.0 mm 0.00 in0.0 mm 0.00 in0.0 mm
04:42 PM 87.7°F30.9°C 67.4°F19.7°C 46% 1.2 mph E1.9 kmh E 1.2 mph1.9 kmh 30.10 in1019.3 mb 0.00 in0.0 mm 0.00 in0.0 mm 0.00 in0.0 mm
04:45 PM 86.6°F30.3°C 67.4°F19.7°C 45% 4.0 mph NE6.4 kmh NE 4.1 mph6.6 kmh 30.10 in1019.3 mb 0.00 in0.0 mm 0.00 in0.0 mm 0.00 in0.0 mm
04:48 PM 87.8°F31.0°C 67.4°F19.7°C 45% 7.2 mph NE11.6 kmh NE 7.2 mph11.6 kmh 30.10 in1019.3 mb 0.00 in0.0 mm 0.00 in0.0 mm 0.00 in0.0 mm
04:51 PM 88.4°F31.3°C 67.3°F19.6°C 45% 4.0 mph NNW6.4 kmh NNW 4.1 mph6.6 kmh 30.10 in1019.3 mb 0.00 in0.0 mm 0.00 in0.0 mm 0.00 in0.0 mm
04:54 PM 87.8°F31.0°C 67.8°F19.9°C 45% 2.4 mph 3.9 kmh 2.5 mph4.0 kmh 30.10 in1019.3 mb 0.00 in0.0 mm 0.00 in0.0 mm 0.00 in0.0 mm
04:57 PM 86.9°F30.5°C 67.5°F19.7°C 44% 4.8 mph ENE7.7 kmh ENE 4.9 mph7.9 kmh 30.10 in1019.3 mb 0.00 in0.0 mm 0.00 in0.0 mm 0.00 in0.0 mm
05:00 PM 88.0°F31.1°C 67.1°F19.5°C 44% 5.3 mph ESE8.5 kmh ESE 5.3 mph8.5 kmh 30.10 in1019.3 mb 0.00 in0.0 mm 0.00 in0.0 mm 0.00 in0.0 mm
05:03 PM 88.8°F31.6°C 66.9°F19.4°C 44% 0.8 mph ENE1.3 kmh ENE 0.8 mph1.3 kmh 30.10 in1019.3 mb 0.00 in0.0 mm 0.00 in0.0 mm 0.00 in0.0 mm
05:06 PM 86.8°F30.4°C 67.0°F19.4°C 44% 2.8 mph NNW4.5 kmh NNW 2.9 mph4.7 kmh 30.09 in1019.0 mb 0.00 in0.0 mm 0.00 in0.0 mm 0.00 in0.0 mm
05:09 PM 85.2°F29.6°C 67.2°F19.6°C 45% 1.6 mph NNW2.6 kmh NNW 1.6 mph2.6 kmh 30.10 in1019.3 mb 0.00 in0.0 mm 0.00 in0.0 mm 0.00 in0.0 mm
05:12 PM 85.4°F29.7°C 66.9°F19.4°C 45% 3.6 mph NNE5.8 kmh NNE 3.6 mph5.8 kmh 30.10 in1019.3 mb 0.00 in0.0 mm 0.00 in0.0 mm 0.00 in0.0 mm
05:15 PM 85.0°F29.4°C 66.9°F19.4°C 45% 3.2 mph 5.1 kmh 3.2 mph5.1 kmh 30.10 in1019.3 mb 0.00 in0.0 mm 0.00 in0.0 mm 0.00 in0.0 mm
05:18 PM 84.0°F28.9°C 67.7°F19.8°C 46% 2.4 mph E3.9 kmh E 2.5 mph4.0 kmh 30.10 in1019.3 mb 0.00 in0.0 mm 0.00 in0.0 mm 0.00 in0.0 mm
05:21 PM 84.2°F29.0°C 67.3°F19.6°C 46% Calm Calm -- 30.10 in1019.3 mb 0.00 in0.0 mm 0.00 in0.0 mm 0.00 in0.0 mm
05:24 PM 83.8°F28.8°C 66.8°F19.3°C 46% 0.8 mph NNE1.3 kmh NNE 0.8 mph1.3 kmh 30.10 in1019.3 mb 0.00 in0.0 mm 0.00 in0.0 mm 0.00 in0.0 mm
05:27 PM 84.7°F29.3°C 67.4°F19.7°C 47% 1.2 mph 1.9 kmh 1.2 mph1.9 kmh 30.10 in1019.3 mb 0.00 in0.0 mm 0.00 in0.0 mm 0.00 in0.0 mm
05:30 PM 83.9°F28.8°C 67.6°F19.8°C 47% Calm Calm -- 30.10 in1019.3 mb 0.00 in0.0 mm 0.00 in0.0 mm 0.00 in0.0 mm
05:33 PM 83.9°F28.8°C 68.3°F20.2°C 48% Calm Calm -- 30.10 in1019.3 mb 0.00 in0.0 mm 0.00 in0.0 mm 0.00 in0.0 mm
05:36 PM 83.3°F28.5°C 67.9°F19.9°C 48% 0.4 mph ENE0.6 kmh ENE 0.4 mph0.6 kmh 30.10 in1019.3 mb 0.00 in0.0 mm 0.00 in0.0 mm 0.00 in0.0 mm
05:39 PM 82.6°F28.1°C 67.9°F19.9°C 48% 1.2 mph NE1.9 kmh NE 1.2 mph1.9 kmh 30.10 in1019.3 mb 0.00 in0.0 mm 0.00 in0.0 mm 0.00 in0.0 mm
05:42 PM 82.5°F28.1°C 67.8°F19.9°C 49% 2.0 mph SE3.2 kmh SE 2.0 mph3.2 kmh 30.10 in1019.3 mb 0.00 in0.0 mm 0.00 in0.0 mm 0.00 in0.0 mm
05:45 PM 82.6°F28.1°C 68.2°F20.1°C 50% 1.2 mph NE1.9 kmh NE 1.2 mph1.9 kmh 30.10 in1019.3 mb 0.00 in0.0 mm 0.00 in0.0 mm 0.00 in0.0 mm
05:48 PM 82.2°F27.9°C 67.9°F19.9°C 49% 1.6 mph SE2.6 kmh SE 1.6 mph2.6 kmh 30.10 in1019.3 mb 0.00 in0.0 mm 0.00 in0.0 mm 0.00 in0.0 mm
05:51 PM 82.0°F27.8°C 67.1°F19.5°C 49% 3.6 mph ESE5.8 kmh ESE 3.7 mph6.0 kmh 30.10 in1019.3 mb 0.00 in0.0 mm 0.00 in0.0 mm 0.00 in0.0 mm
05:54 PM 81.8°F27.7°C 67.8°F19.9°C 50% 0.4 mph SSE0.6 kmh SSE 0.4 mph0.6 kmh 30.10 in1019.3 mb 0.00 in0.0 mm 0.00 in0.0 mm 0.00 in0.0 mm
05:57 PM 82.0°F27.8°C 67.4°F19.7°C 50% 3.2 mph SE5.1 kmh SE 3.2 mph5.1 kmh 30.10 in1019.3 mb 0.00 in0.0 mm 0.00 in0.0 mm 0.00 in0.0 mm
06:00 PM 82.3°F27.9°C 68.2°F20.1°C 51% Calm Calm -- 30.10 in1019.3 mb 0.00 in0.0 mm 0.00 in0.0 mm 0.00 in0.0 mm
06:03 PM 82.9°F28.3°C 68.3°F20.2°C 51% Calm Calm -- 30.10 in1019.3 mb 0.00 in0.0 mm 0.00 in0.0 mm 0.00 in0.0 mm
06:06 PM 83.8°F28.8°C 68.3°F20.2°C 50% 0.8 mph S1.3 kmh S 0.8 mph1.3 kmh 30.10 in1019.3 mb 0.00 in0.0 mm 0.00 in0.0 mm 0.00 in0.0 mm
06:09 PM 83.2°F28.4°C 68.2°F20.1°C 50% 3.6 mph NNE5.8 kmh NNE 3.6 mph5.8 kmh 30.10 in1019.3 mb 0.00 in0.0 mm 0.00 in0.0 mm 0.00 in0.0 mm
06:12 PM 83.9°F28.8°C 68.5°F20.3°C 50% 4.4 mph 7.1 kmh 4.5 mph7.2 kmh 30.10 in1019.3 mb 0.00 in0.0 mm 0.00 in0.0 mm 0.00 in0.0 mm
06:15 PM 82.6°F28.1°C 67.9°F19.9°C 49% 5.7 mph NNE9.2 kmh NNE 5.7 mph9.2 kmh 30.10 in1019.3 mb 0.00 in0.0 mm 0.00 in0.0 mm 0.00 in0.0 mm
06:18 PM 82.1°F27.8°C 68.5°F20.3°C 50% 6.7 mph NE10.8 kmh NE 6.7 mph10.8 kmh 30.10 in1019.3 mb 0.00 in0.0 mm 0.00 in0.0 mm 0.00 in0.0 mm
06:21 PM 81.8°F27.7°C 68.1°F20.1°C 50% 4.9 mph NNW7.9 kmh NNW 4.9 mph7.9 kmh 30.10 in1019.3 mb 0.00 in0.0 mm 0.00 in0.0 mm 0.00 in0.0 mm
06:24 PM 82.0°F27.8°C 68.3°F20.2°C 50% 6.1 mph 9.8 kmh 6.1 mph9.8 kmh 30.10 in1019.3 mb 0.00 in0.0 mm 0.00 in0.0 mm 0.00 in0.0 mm
06:27 PM 81.8°F27.7°C 68.6°F20.3°C 51% 5.3 mph 8.5 kmh 5.3 mph8.5 kmh 30.10 in1019.3 mb 0.00 in0.0 mm 0.00 in0.0 mm 0.00 in0.0 mm
06:30 PM 82.6°F28.1°C 68.5°F20.3°C 51% 3.6 mph NNW5.8 kmh NNW 3.7 mph6.0 kmh 30.11 in1019.6 mb 0.00 in0.0 mm 0.00 in0.0 mm 0.00 in0.0 mm
06:33 PM 82.1°F27.8°C 68.3°F20.2°C 50% 3.6 mph NNW5.8 kmh NNW 3.6 mph5.8 kmh 30.11 in1019.6 mb 0.00 in0.0 mm 0.00 in0.0 mm 0.00 in0.0 mm
06:39 PM 82.1°F27.8°C 68.3°F20.2°C 50% 2.4 mph NNE3.9 kmh NNE 2.4 mph3.9 kmh 30.11 in1019.6 mb 0.00 in0.0 mm 0.00 in0.0 mm 0.00 in0.0 mm
06:42 PM 82.2°F27.9°C 68.7°F20.4°C 51% 0.4 mph E0.6 kmh E 0.4 mph0.6 kmh 30.11 in1019.6 mb 0.00 in0.0 mm 0.00 in0.0 mm 0.00 in0.0 mm
06:48 PM 81.7°F27.6°C 68.4°F20.2°C 50% 1.6 mph SE2.6 kmh SE 1.6 mph2.6 kmh 30.10 in1019.3 mb 0.00 in0.0 mm 0.00 in0.0 mm 0.00 in0.0 mm
06:51 PM 81.2°F27.3°C 68.8°F20.4°C 51% 3.2 mph ENE5.1 kmh ENE 3.2 mph5.1 kmh 30.11 in1019.6 mb 0.00 in0.0 mm 0.00 in0.0 mm 0.00 in0.0 mm
06:54 PM 81.1°F27.3°C 67.9°F19.9°C 51% 3.2 mph SE5.1 kmh SE 3.2 mph5.1 kmh 30.10 in1019.3 mb 0.00 in0.0 mm 0.00 in0.0 mm 0.00 in0.0 mm
06:57 PM 80.6°F27.0°C 68.1°F20.1°C 52% 2.4 mph ESE3.9 kmh ESE 2.4 mph3.9 kmh 30.10 in1019.3 mb 0.00 in0.0 mm 0.00 in0.0 mm 0.00 in0.0 mm
07:00 PM 80.7°F27.1°C 67.7°F19.8°C 52% 1.2 mph E1.9 kmh E 1.2 mph1.9 kmh 30.10 in1019.3 mb 0.00 in0.0 mm 0.00 in0.0 mm 0.00 in0.0 mm
07:06 PM 80.3°F26.8°C 67.7°F19.8°C 51% Calm Calm -- 30.10 in1019.3 mb 0.00 in0.0 mm 0.00 in0.0 mm 0.00 in0.0 mm
07:09 PM 80.2°F26.8°C 67.7°F19.8°C 51% 0.4 mph NNW0.6 kmh NNW 0.4 mph0.6 kmh 30.10 in1019.3 mb 0.00 in0.0 mm 0.00 in0.0 mm 0.00 in0.0 mm
07:12 PM 79.7°F26.5°C 68.3°F20.2°C 52% 2.0 mph SE3.2 kmh SE 2.0 mph3.2 kmh 30.11 in1019.6 mb 0.00 in0.0 mm 0.00 in0.0 mm 0.00 in0.0 mm
07:18 PM 79.1°F26.2°C 67.7°F19.8°C 51% Calm Calm -- 30.10 in1019.3 mb 0.00 in0.0 mm 0.00 in0.0 mm 0.00 in0.0 mm
07:24 PM 77.7°F25.4°C 67.9°F19.9°C 53% 6.1 mph SE9.8 kmh SE 6.1 mph9.8 kmh 30.10 in1019.3 mb 0.00 in0.0 mm 0.00 in0.0 mm 0.00 in0.0 mm
07:27 PM 77.7°F25.4°C 67.5°F19.7°C 53% Calm Calm -- 30.10 in1019.3 mb 0.00 in0.0 mm 0.00 in0.0 mm 0.00 in0.0 mm
07:30 PM 77.6°F25.3°C 67.6°F19.8°C 53% 4.0 mph NE6.4 kmh NE 4.1 mph6.6 kmh 30.10 in1019.3 mb 0.00 in0.0 mm 0.00 in0.0 mm 0.00 in0.0 mm
07:33 PM 77.2°F25.1°C 67.8°F19.9°C 54% 0.8 mph SE1.3 kmh SE 0.8 mph1.3 kmh 30.10 in1019.3 mb 0.00 in0.0 mm 0.00 in0.0 mm 0.00 in0.0 mm
07:39 PM 76.6°F24.8°C 68.0°F20.0°C 54% 1.2 mph SW1.9 kmh SW 1.2 mph1.9 kmh 30.10 in1019.3 mb 0.00 in0.0 mm 0.00 in0.0 mm 0.00 in0.0 mm
07:42 PM 76.7°F24.8°C 67.4°F19.7°C 54% Calm Calm -- 30.10 in1019.3 mb 0.00 in0.0 mm 0.00 in0.0 mm 0.00 in0.0 mm
07:45 PM 76.4°F24.7°C 67.8°F19.9°C 54% Calm Calm -- 30.10 in1019.3 mb 0.00 in0.0 mm 0.00 in0.0 mm 0.00 in0.0 mm
07:48 PM 76.1°F24.5°C 68.0°F20.0°C 54% 5.6 mph NE9.0 kmh NE 5.7 mph9.2 kmh 30.10 in1019.3 mb 0.00 in0.0 mm 0.00 in0.0 mm 0.00 in0.0 mm
07:51 PM 75.9°F24.4°C 67.9°F19.9°C 55% 7.3 mph NE11.7 kmh NE 7.3 mph11.7 kmh 30.10 in1019.3 mb 0.00 in0.0 mm 0.00 in0.0 mm 0.00 in0.0 mm
07:54 PM 76.0°F24.4°C 67.5°F19.7°C 56% 2.4 mph E3.9 kmh E 2.4 mph3.9 kmh 30.10 in1019.3 mb 0.00 in0.0 mm 0.00 in0.0 mm 0.00 in0.0 mm
07:57 PM 76.0°F24.4°C 67.7°F19.8°C 56% 4.8 mph NE7.7 kmh NE 4.8 mph7.7 kmh 30.10 in1019.3 mb 0.00 in0.0 mm 0.00 in0.0 mm 0.00 in0.0 mm
08:00 PM 75.9°F24.4°C 67.5°F19.7°C 56% 1.2 mph NNW1.9 kmh NNW 1.2 mph1.9 kmh 30.10 in1019.3 mb 0.00 in0.0 mm 0.00 in0.0 mm 0.00 in0.0 mm
08:03 PM 75.9°F24.4°C 67.4°F19.7°C 57% 2.0 mph NE3.2 kmh NE 2.0 mph3.2 kmh 30.11 in1019.6 mb 0.00 in0.0 mm 0.00 in0.0 mm 0.00 in0.0 mm
08:06 PM 75.9°F24.4°C 67.6°F19.8°C 57% 2.0 mph NE3.2 kmh NE 2.0 mph3.2 kmh 30.11 in1019.6 mb 0.00 in0.0 mm 0.00 in0.0 mm 0.00 in0.0 mm
08:09 PM 75.5°F24.2°C 67.3°F19.6°C 57% 2.0 mph E3.2 kmh E 2.0 mph3.2 kmh 30.11 in1019.6 mb 0.00 in0.0 mm 0.00 in0.0 mm 0.00 in0.0 mm
08:12 PM 75.4°F24.1°C 67.3°F19.6°C 57% 2.8 mph NNW4.5 kmh NNW 2.8 mph4.5 kmh 30.11 in1019.6 mb 0.00 in0.0 mm 0.00 in0.0 mm 0.00 in0.0 mm
08:15 PM 75.5°F24.2°C 67.2°F19.6°C 58% 10.5 mph NNE16.9 kmh NNE 10.6 mph17.1 kmh 30.11 in1019.6 mb 0.00 in0.0 mm 0.00 in0.0 mm 0.00 in0.0 mm
08:18 PM 75.2°F24.0°C 67.3°F19.6°C 58% 4.0 mph ENE6.4 kmh ENE 4.0 mph6.4 kmh 30.11 in1019.6 mb 0.00 in0.0 mm 0.00 in0.0 mm 0.00 in0.0 mm
08:21 PM 75.3°F24.1°C 67.0°F19.4°C 58% 4.8 mph NE7.7 kmh NE 4.8 mph7.7 kmh 30.11 in1019.6 mb 0.00 in0.0 mm 0.00 in0.0 mm 0.00 in0.0 mm
08:24 PM 75.2°F24.0°C 67.6°F19.8°C 58% 3.6 mph ENE5.8 kmh ENE 3.6 mph5.8 kmh 30.11 in1019.6 mb 0.00 in0.0 mm 0.00 in0.0 mm 0.00 in0.0 mm
08:27 PM 75.2°F24.0°C 67.5°F19.7°C 58% 3.6 mph ENE5.8 kmh ENE 3.7 mph6.0 kmh 30.11 in1019.6 mb 0.00 in0.0 mm 0.00 in0.0 mm 0.00 in0.0 mm
08:30 PM 75.2°F24.0°C 67.0°F19.4°C 58% 6.8 mph NE10.9 kmh NE 6.8 mph10.9 kmh 30.11 in1019.6 mb 0.00 in0.0 mm 0.00 in0.0 mm 0.00 in0.0 mm
08:33 PM 75.3°F24.1°C 67.0°F19.4°C 59% 6.4 mph NE10.3 kmh NE 6.4 mph10.3 kmh 30.11 in1019.6 mb 0.00 in0.0 mm 0.00 in0.0 mm 0.00 in0.0 mm
08:36 PM 75.3°F24.1°C 67.0°F19.4°C 59% 4.9 mph E7.9 kmh E 4.9 mph7.9 kmh 30.11 in1019.6 mb 0.00 in0.0 mm 0.00 in0.0 mm 0.00 in0.0 mm
08:39 PM 75.1°F23.9°C 66.7°F19.3°C 59% 12.1 mph NE19.5 kmh NE 12.2 mph19.6 kmh 30.11 in1019.6 mb 0.00 in0.0 mm 0.00 in0.0 mm 0.00 in0.0 mm
08:45 PM 75.1°F23.9°C 66.8°F19.3°C 58% 4.1 mph NNW6.6 kmh NNW 4.1 mph6.6 kmh 30.12 in1020.0 mb 0.00 in0.0 mm 0.00 in0.0 mm 0.00 in0.0 mm
08:48 PM 75.1°F23.9°C 66.8°F19.3°C 59% 4.8 mph E7.7 kmh E 4.8 mph7.7 kmh 30.12 in1020.0 mb 0.00 in0.0 mm 0.00 in0.0 mm 0.00 in0.0 mm
08:51 PM 75.3°F24.1°C 67.2°F19.6°C 59% 2.0 mph ENE3.2 kmh ENE 2.0 mph3.2 kmh 30.12 in1020.0 mb 0.00 in0.0 mm 0.00 in0.0 mm 0.00 in0.0 mm
08:54 PM 75.1°F23.9°C 66.8°F19.3°C 59% 1.6 mph E2.6 kmh E 1.6 mph2.6 kmh 30.12 in1020.0 mb 0.00 in0.0 mm 0.00 in0.0 mm 0.00 in0.0 mm
08:57 PM 75.0°F23.9°C 67.0°F19.4°C 59% 2.8 mph NNW4.5 kmh NNW 2.8 mph4.5 kmh 30.12 in1020.0 mb 0.00 in0.0 mm 0.00 in0.0 mm 0.00 in0.0 mm
09:00 PM 74.9°F23.8°C 67.4°F19.7°C 59% 2.8 mph NE4.5 kmh NE 2.8 mph4.5 kmh 30.13 in1020.3 mb 0.00 in0.0 mm 0.00 in0.0 mm 0.00 in0.0 mm
09:03 PM 75.1°F23.9°C 66.7°F19.3°C 59% 2.4 mph E3.9 kmh E 2.4 mph3.9 kmh 30.13 in1020.3 mb 0.00 in0.0 mm 0.00 in0.0 mm 0.00 in0.0 mm
09:06 PM 75.0°F23.9°C 66.7°F19.3°C 59% 2.0 mph E3.2 kmh E 2.0 mph3.2 kmh 30.13 in1020.3 mb 0.00 in0.0 mm 0.00 in0.0 mm 0.00 in0.0 mm
09:09 PM 75.0°F23.9°C 66.7°F19.3°C 59% 4.0 mph ESE6.4 kmh ESE 4.1 mph6.6 kmh 30.13 in1020.3 mb 0.00 in0.0 mm 0.00 in0.0 mm 0.00 in0.0 mm
09:15 PM 75.1°F23.9°C 67.0°F19.4°C 59% 4.0 mph E6.4 kmh E 4.0 mph6.4 kmh 30.13 in1020.3 mb 0.00 in0.0 mm 0.00 in0.0 mm 0.00 in0.0 mm
09:21 PM 75.0°F23.9°C 66.0°F18.9°C 59% 3.2 mph E5.1 kmh E 3.3 mph5.3 kmh 30.13 in1020.3 mb 0.00 in0.0 mm 0.00 in0.0 mm 0.00 in0.0 mm
09:30 PM 74.8°F23.8°C 66.6°F19.2°C 59% 3.6 mph E5.8 kmh E 3.6 mph5.8 kmh 30.13 in1020.3 mb 0.00 in0.0 mm 0.00 in0.0 mm 0.00 in0.0 mm
09:36 PM 74.8°F23.8°C 66.5°F19.2°C 60% 2.8 mph ENE4.5 kmh ENE 2.8 mph4.5 kmh 30.13 in1020.3 mb 0.00 in0.0 mm 0.00 in0.0 mm 0.00 in0.0 mm
09:39 PM 74.8°F23.8°C 66.5°F19.2°C 59% 4.4 mph ENE7.1 kmh ENE 4.4 mph7.1 kmh 30.12 in1020.0 mb 0.00 in0.0 mm 0.00 in0.0 mm 0.00 in0.0 mm
09:42 PM 74.8°F23.8°C 66.6°F19.2°C 59% 4.0 mph E6.4 kmh E 4.1 mph6.6 kmh 30.12 in1020.0 mb 0.00 in0.0 mm 0.00 in0.0 mm 0.00 in0.0 mm
09:45 PM 75.0°F23.9°C 66.5°F19.2°C 59% 3.2 mph E5.1 kmh E 3.2 mph5.1 kmh 30.12 in1020.0 mb 0.00 in0.0 mm 0.00 in0.0 mm 0.00 in0.0 mm
09:48 PM 75.1°F23.9°C 65.9°F18.8°C 59% 4.0 mph E6.4 kmh E 4.1 mph6.6 kmh 30.13 in1020.3 mb 0.00 in0.0 mm 0.00 in0.0 mm 0.00 in0.0 mm
09:51 PM 75.0°F23.9°C 66.3°F19.1°C 59% 1.2 mph E1.9 kmh E 1.2 mph1.9 kmh 30.12 in1020.0 mb 0.00 in0.0 mm 0.00 in0.0 mm 0.00 in0.0 mm
09:54 PM 75.2°F24.0°C 65.8°F18.8°C 59% 3.6 mph SE5.8 kmh SE 3.7 mph6.0 kmh 30.12 in1020.0 mb 0.00 in0.0 mm 0.00 in0.0 mm 0.00 in0.0 mm
10:00 PM 75.1°F23.9°C 66.1°F18.9°C 59% 5.5 mph ENE8.9 kmh ENE 5.6 mph9.0 kmh 30.12 in1020.0 mb 0.00 in0.0 mm 0.00 in0.0 mm 0.00 in0.0 mm
10:06 PM 75.2°F24.0°C 66.0°F18.9°C 58% 4.0 mph NE6.4 kmh NE 4.0 mph6.4 kmh 30.12 in1020.0 mb 0.00 in0.0 mm 0.00 in0.0 mm 0.00 in0.0 mm
10:09 PM 75.5°F24.2°C 65.8°F18.8°C 58% 1.6 mph ENE2.6 kmh ENE 1.6 mph2.6 kmh 30.12 in1020.0 mb 0.00 in0.0 mm 0.00 in0.0 mm 0.00 in0.0 mm
10:12 PM 75.4°F24.1°C 65.5°F18.6°C 58% 3.6 mph NE5.8 kmh NE 3.7 mph6.0 kmh 30.12 in1020.0 mb 0.00 in0.0 mm 0.00 in0.0 mm 0.00 in0.0 mm
10:18 PM 75.2°F24.0°C 65.9°F18.8°C 58% 3.2 mph NE5.1 kmh NE 3.3 mph5.3 kmh 30.12 in1020.0 mb 0.00 in0.0 mm 0.00 in0.0 mm 0.00 in0.0 mm
10:27 PM 75.7°F24.3°C 65.5°F18.6°C 57% 9.5 mph NNW15.3 kmh NNW 9.6 mph15.4 kmh 30.12 in1020.0 mb 0.00 in0.0 mm 0.00 in0.0 mm 0.00 in0.0 mm
10:30 PM 75.5°F24.2°C 64.8°F18.2°C 57% 2.4 mph E3.9 kmh E 2.4 mph3.9 kmh 30.12 in1020.0 mb 0.00 in0.0 mm 0.00 in0.0 mm 0.00 in0.0 mm
10:33 PM 75.4°F24.1°C 65.2°F18.4°C 57% 4.9 mph 7.9 kmh 4.9 mph7.9 kmh 30.12 in1020.0 mb 0.00 in0.0 mm 0.00 in0.0 mm 0.00 in0.0 mm
10:36 PM 75.4°F24.1°C 65.2°F18.4°C 57% 12.1 mph ENE19.5 kmh ENE 12.2 mph19.6 kmh 30.12 in1020.0 mb 0.00 in0.0 mm 0.00 in0.0 mm 0.00 in0.0 mm
10:39 PM 75.9°F24.4°C 65.2°F18.4°C 57% 2.0 mph NNW3.2 kmh NNW 2.0 mph3.2 kmh 30.12 in1020.0 mb 0.00 in0.0 mm 0.00 in0.0 mm 0.00 in0.0 mm
10:42 PM 75.5°F24.2°C 66.1°F18.9°C 57% 3.6 mph E5.8 kmh E 3.6 mph5.8 kmh 30.12 in1020.0 mb 0.00 in0.0 mm 0.00 in0.0 mm 0.00 in0.0 mm
10:45 PM 75.4°F24.1°C 65.5°F18.6°C 57% 2.0 mph ENE3.2 kmh ENE 2.0 mph3.2 kmh 30.13 in1020.3 mb 0.00 in0.0 mm 0.00 in0.0 mm 0.00 in0.0 mm
10:48 PM 75.3°F24.1°C 65.5°F18.6°C 57% 3.6 mph E5.8 kmh E 3.7 mph6.0 kmh 30.13 in1020.3 mb 0.00 in0.0 mm 0.00 in0.0 mm 0.00 in0.0 mm
10:54 PM 75.5°F24.2°C 65.8°F18.8°C 57% 2.4 mph E3.9 kmh E 2.4 mph3.9 kmh 30.12 in1020.0 mb 0.00 in0.0 mm 0.00 in0.0 mm 0.00 in0.0 mm
10:57 PM 75.4°F24.1°C 66.1°F18.9°C 58% 2.4 mph E3.9 kmh E 2.4 mph3.9 kmh 30.12 in1020.0 mb 0.00 in0.0 mm 0.00 in0.0 mm 0.00 in0.0 mm
11:00 PM 75.5°F24.2°C 66.0°F18.9°C 58% 8.9 mph NW14.3 kmh NW 9.0 mph14.5 kmh 30.11 in1019.6 mb 0.00 in0.0 mm 0.00 in0.0 mm 0.00 in0.0 mm
11:09 PM 74.9°F23.8°C 66.3°F19.1°C 58% 2.0 mph ENE3.2 kmh ENE 2.0 mph3.2 kmh 30.12 in1020.0 mb 0.00 in0.0 mm 0.00 in0.0 mm 0.00 in0.0 mm
11:15 PM 75.2°F24.0°C 65.7°F18.7°C 58% 0.8 mph E1.3 kmh E 0.8 mph1.3 kmh 30.11 in1019.6 mb 0.00 in0.0 mm 0.00 in0.0 mm 0.00 in0.0 mm
11:18 PM 75.3°F24.1°C 65.7°F18.7°C 57% 4.0 mph NNW6.4 kmh NNW 4.1 mph6.6 kmh 30.11 in1019.6 mb 0.00 in0.0 mm 0.00 in0.0 mm 0.00 in0.0 mm
11:21 PM 75.2°F24.0°C 65.7°F18.7°C 57% 2.8 mph NNW4.5 kmh NNW 2.8 mph4.5 kmh 30.11 in1019.6 mb 0.00 in0.0 mm 0.00 in0.0 mm 0.00 in0.0 mm
11:24 PM 75.5°F24.2°C 65.8°F18.8°C 58% 2.0 mph E3.2 kmh E 2.0 mph3.2 kmh 30.11 in1019.6 mb 0.00 in0.0 mm 0.00 in0.0 mm 0.00 in0.0 mm
11:27 PM 75.4°F24.1°C 65.1°F18.4°C 58% 4.0 mph NNW6.4 kmh NNW 4.1 mph6.6 kmh 30.11 in1019.6 mb 0.00 in0.0 mm 0.00 in0.0 mm 0.00 in0.0 mm
11:30 PM 75.4°F24.1°C 65.4°F18.6°C 58% 3.6 mph NE5.8 kmh NE 3.7 mph6.0 kmh 30.11 in1019.6 mb 0.00 in0.0 mm 0.00 in0.0 mm 0.00 in0.0 mm
11:33 PM 75.5°F24.2°C 65.4°F18.6°C 58% 4.4 mph NNW7.1 kmh NNW 4.4 mph7.1 kmh 30.11 in1019.6 mb 0.00 in0.0 mm 0.00 in0.0 mm 0.00 in0.0 mm
11:39 PM 75.7°F24.3°C 66.3°F19.1°C 58% 2.4 mph ESE3.9 kmh ESE 2.4 mph3.9 kmh 30.10 in1019.3 mb 0.00 in0.0 mm 0.00 in0.0 mm 0.00 in0.0 mm
11:41 PM 75.8°F24.3°C 65.6°F18.7°C 59% 6.8 mph ESE10.9 kmh ESE 6.8 mph10.9 kmh 30.10 in1019.3 mb 0.00 in0.0 mm 0.00 in0.0 mm 0.00 in0.0 mm
11:44 PM 75.4°F24.1°C 65.8°F18.8°C 59% 1.2 mph NE1.9 kmh NE 1.2 mph1.9 kmh 30.10 in1019.3 mb 0.00 in0.0 mm 0.00 in0.0 mm 0.00 in0.0 mm
11:47 PM 75.9°F24.4°C 66.1°F18.9°C 59% 3.6 mph NNW5.8 kmh NNW 3.7 mph6.0 kmh 30.10 in1019.3 mb 0.00 in0.0 mm 0.00 in0.0 mm 0.00 in0.0 mm
11:50 PM 76.0°F24.4°C 66.0°F18.9°C 59% 4.0 mph E6.4 kmh E 4.0 mph6.4 kmh 30.10 in1019.3 mb 0.00 in0.0 mm 0.00 in0.0 mm 0.00 in0.0 mm
11:53 PM 75.8°F24.3°C 66.5°F19.2°C 59% 2.8 mph NE4.5 kmh NE 2.8 mph4.5 kmh 30.10 in1019.3 mb 0.00 in0.0 mm 0.00 in0.0 mm 0.00 in0.0 mm
11:56 PM 75.4°F24.1°C 66.8°F19.3°C 59% 7.5 mph SE12.1 kmh SE 7.5 mph12.1 kmh 30.10 in1019.3 mb 0.00 in0.0 mm 0.00 in0.0 mm 0.00 in0.0 mm
11:59 PM 75.4°F24.1°C 66.3°F19.1°C 59% 2.0 mph ESE3.2 kmh ESE 2.0 mph3.2 kmh 30.10 in1019.3 mb 0.00 in0.0 mm 0.00 in0.0 mm 0.00 in0.0 mm